Time,TemperatureF,DewpointF,PressureIn,WindDirection,WindDirectionDegrees,WindSpeedMPH,WindSpeedGustMPH,Humidity,HourlyPrecipIn,Conditions,Clouds,dailyrainin,SoftwareType,DateUTC
2013-08-04 00:00:00,53.2,42.6,0.00,East,81,0.0,4.5,67,0.00,,---,0.00,VWS V14.00,2013-08-04 06:00:00,
2013-08-04 00:04:00,53.2,42.6,0.00,SSE,163,0.0,0.0,67,0.00,,---,0.00,VWS V14.00,2013-08-04 06:04:00,
2013-08-04 00:05:00,53.2,42.6,0.00,SSE,162,0.0,0.0,67,0.00,,---,0.00,VWS V14.00,2013-08-04 06:05:00,
2013-08-04 00:09:00,53.1,42.0,0.00,South,175,0.0,0.0,66,0.00,,---,0.00,VWS V14.00,2013-08-04 06:09:00,
2013-08-04 00:10:00,53.1,42.0,0.00,South,175,0.0,0.0,66,0.00,,---,0.00,VWS V14.00,2013-08-04 06:10:00,
2013-08-04 00:14:00,52.9,41.8,0.00,South,173,0.0,0.0,66,0.00,,---,0.00,VWS V14.00,2013-08-04 06:14:00,
2013-08-04 00:15:00,52.9,41.8,0.00,South,170,0.0,0.0,66,0.00,,---,0.00,VWS V14.00,2013-08-04 06:15:00,
2013-08-04 00:19:00,52.7,41.7,0.00,SW,226,0.0,0.0,66,0.00,,---,0.00,VWS V14.00,2013-08-04 06:19:00,
2013-08-04 00:20:00,52.7,41.7,0.00,SW,226,0.0,0.0,66,0.00,,---,0.00,VWS V14.00,2013-08-04 06:20:00,
2013-08-04 00:24:00,52.5,41.9,0.00,SW,216,0.0,0.0,67,0.00,,---,0.00,VWS V14.00,2013-08-04 06:24:00,
2013-08-04 00:25:00,52.5,41.9,0.00,SW,216,0.0,0.0,67,0.00,,---,0.00,VWS V14.00,2013-08-04 06:25:00,
2013-08-04 00:30:00,52.3,41.3,0.00,SW,216,0.0,0.0,66,0.00,,---,0.00,VWS V14.00,2013-08-04 06:30:00,
2013-08-04 00:35:00,52.2,41.2,0.00,SE,125,0.0,0.0,66,0.00,,---,0.00,VWS V14.00,2013-08-04 06:35:00,
2013-08-04 00:40:00,52.0,41.4,0.00,SE,129,0.0,0.0,67,0.00,,---,0.00,VWS V14.00,2013-08-04 06:40:00,
2013-08-04 00:41:00,52.0,41.4,0.00,SSW,211,0.0,0.0,67,0.00,,---,0.00,VWS V14.00,2013-08-04 06:41:00,
2013-08-04 00:45:00,51.8,41.2,0.00,SSW,211,0.0,0.0,67,0.00,,---,0.00,VWS V14.00,2013-08-04 06:45:00,
2013-08-04 00:46:00,51.8,41.2,0.00,SSW,211,0.0,0.0,67,0.00,,---,0.00,VWS V14.00,2013-08-04 06:46:00,
2013-08-04 00:50:00,51.6,41.4,0.00,SSW,193,0.0,0.0,68,0.00,,---,0.00,VWS V14.00,2013-08-04 06:50:00,
2013-08-04 00:51:00,51.6,41.4,0.00,SSE,151,0.0,3.1,68,0.00,,---,0.00,VWS V14.00,2013-08-04 06:51:00,
2013-08-04 00:55:00,51.4,41.2,0.00,SSE,164,0.0,3.1,68,0.00,,---,0.00,VWS V14.00,2013-08-04 06:55:00,
2013-08-04 00:56:00,51.4,41.2,0.00,South,182,0.0,0.0,68,0.00,,---,0.00,VWS V14.00,2013-08-04 06:56:00,
2013-08-04 00:57:00,51.4,41.2,0.00,SSE,164,0.0,0.0,68,0.00,,---,0.00,VWS V14.00,2013-08-04 06:57:00,
2013-08-04 01:00:00,51.4,41.2,0.00,SSE,168,0.0,0.0,68,0.00,,---,0.00,VWS V14.00,2013-08-04 07:00:00,
2013-08-04 01:01:00,51.4,41.2,0.00,SSE,167,0.0,0.0,68,0.00,,---,0.00,VWS V14.00,2013-08-04 07:01:00,
2013-08-04 01:02:00,51.3,41.1,0.00,SW,218,0.0,0.0,68,0.00,,---,0.00,VWS V14.00,2013-08-04 07:02:00,
2013-08-04 01:05:00,51.3,41.1,0.00,SE,137,3.1,4.0,68,0.00,,---,0.00,VWS V14.00,2013-08-04 07:05:00,
2013-08-04 01:06:00,51.3,41.1,0.00,SE,137,3.1,4.0,68,0.00,,---,0.00,VWS V14.00,2013-08-04 07:06:00,
2013-08-04 01:07:00,51.3,41.5,0.00,SSE,150,2.7,2.7,69,0.00,,---,0.00,VWS V14.00,2013-08-04 07:07:00,
2013-08-04 01:11:00,51.1,41.3,0.00,ESE,121,3.1,4.9,69,0.00,,---,0.00,VWS V14.00,2013-08-04 07:11:00,
2013-08-04 01:12:00,51.1,41.3,0.00,ESE,122,0.0,0.0,69,0.00,,---,0.00,VWS V14.00,2013-08-04 07:12:00,
2013-08-04 01:16:00,51.1,41.3,0.00,ESE,109,0.0,0.0,69,0.00,,---,0.00,VWS V14.00,2013-08-04 07:16:00,
2013-08-04 01:17:00,51.1,41.3,0.00,ESE,116,0.0,0.0,69,0.00,,---,0.00,VWS V14.00,2013-08-04 07:17:00,
2013-08-04 01:21:00,51.1,41.3,0.00,ESE,115,3.1,4.0,69,0.00,,---,0.00,VWS V14.00,2013-08-04 07:21:00,
2013-08-04 01:22:00,51.1,41.3,0.00,ESE,115,0.0,2.7,69,0.00,,---,0.00,VWS V14.00,2013-08-04 07:22:00,
2013-08-04 01:26:00,50.9,41.1,0.00,East,82,0.0,3.1,69,0.00,,---,0.00,VWS V14.00,2013-08-04 07:26:00,
2013-08-04 01:27:00,50.9,41.1,0.00,ENE,62,0.0,0.0,69,0.00,,---,0.00,VWS V14.00,2013-08-04 07:27:00,
2013-08-04 01:31:00,50.9,41.1,0.00,ENE,62,0.0,0.0,69,0.00,,---,0.00,VWS V14.00,2013-08-04 07:31:00,
2013-08-04 01:32:00,50.9,41.1,0.00,SE,126,3.1,3.1,69,0.00,,---,0.00,VWS V14.00,2013-08-04 07:32:00,
2013-08-04 01:36:00,50.7,40.9,0.00,SE,125,0.0,0.0,69,0.00,,---,0.00,VWS V14.00,2013-08-04 07:36:00,
2013-08-04 01:37:00,50.7,41.3,0.00,SE,124,0.0,0.0,70,0.00,,---,0.00,VWS V14.00,2013-08-04 07:37:00,
2013-08-04 01:41:00,50.7,41.3,0.00,ENE,73,2.2,2.2,70,0.00,,---,0.00,VWS V14.00,2013-08-04 07:41:00,
2013-08-04 01:42:00,50.7,41.3,0.00,SE,127,2.7,5.4,70,0.00,,---,0.00,VWS V14.00,2013-08-04 07:42:00,
2013-08-04 01:43:00,50.7,41.3,0.00,SSE,151,2.7,3.1,70,0.00,,---,0.00,VWS V14.00,2013-08-04 07:43:00,
2013-08-04 01:46:00,50.7,41.3,0.00,SSE,165,2.2,4.0,70,0.00,,---,0.00,VWS V14.00,2013-08-04 07:46:00,
2013-08-04 01:47:00,50.7,41.3,0.00,SSE,161,0.0,0.0,70,0.00,,---,0.00,VWS V14.00,2013-08-04 07:47:00,
2013-08-04 01:48:00,50.7,41.3,0.00,SSE,149,2.2,2.2,70,0.00,,---,0.00,VWS V14.00,2013-08-04 07:48:00,
2013-08-04 01:51:00,50.9,41.5,0.00,SSE,148,4.0,4.0,70,0.00,,---,0.00,VWS V14.00,2013-08-04 07:51:00,
2013-08-04 01:52:00,50.9,41.5,0.00,ESE,115,3.6,3.6,70,0.00,,---,0.00,VWS V14.00,2013-08-04 07:52:00,
2013-08-04 01:53:00,50.9,41.5,0.00,SE,125,4.0,4.0,70,0.00,,---,0.00,VWS V14.00,2013-08-04 07:53:00,
2013-08-04 01:57:00,51.1,41.3,0.00,SE,132,0.0,3.6,69,0.00,,---,0.00,VWS V14.00,2013-08-04 07:57:00,
2013-08-04 01:58:00,51.1,41.3,0.00,SSE,150,2.7,2.7,69,0.00,,---,0.00,VWS V14.00,2013-08-04 07:58:00,
2013-08-04 02:02:00,51.1,41.3,0.00,SSE,148,0.0,2.2,69,0.00,,---,0.00,VWS V14.00,2013-08-04 08:02:00,
2013-08-04 02:03:00,51.1,41.3,0.00,SSE,148,0.0,0.0,69,0.00,,---,0.00,VWS V14.00,2013-08-04 08:03:00,
2013-08-04 02:04:00,51.1,41.3,0.00,SSE,147,0.0,0.0,69,0.00,,---,0.00,VWS V14.00,2013-08-04 08:04:00,
2013-08-04 02:07:00,51.1,41.3,0.00,ENE,69,0.0,0.0,69,0.00,,---,0.00,VWS V14.00,2013-08-04 08:07:00,
2013-08-04 02:08:00,51.1,41.3,0.00,ESE,109,0.0,3.1,69,0.00,,---,0.00,VWS V14.00,2013-08-04 08:08:00,
2013-08-04 02:09:00,51.1,41.3,0.00,ESE,109,0.0,0.0,69,0.00,,---,0.00,VWS V14.00,2013-08-04 08:09:00,
2013-08-04 02:12:00,51.1,41.3,0.00,ESE,109,0.0,0.0,69,0.00,,---,0.00,VWS V14.00,2013-08-04 08:12:00,
2013-08-04 02:13:00,51.1,41.3,0.00,ESE,109,0.0,0.0,69,0.00,,---,0.00,VWS V14.00,2013-08-04 08:13:00,
2013-08-04 02:14:00,51.1,41.3,0.00,ESE,103,0.0,0.0,69,0.00,,---,0.00,VWS V14.00,2013-08-04 08:14:00,
2013-08-04 02:17:00,51.1,41.3,0.00,ESE,113,3.6,3.6,69,0.00,,---,0.00,VWS V14.00,2013-08-04 08:17:00,
2013-08-04 02:18:00,51.1,41.3,0.00,ESE,113,0.0,3.6,69,0.00,,---,0.00,VWS V14.00,2013-08-04 08:18:00,
2013-08-04 02:19:00,51.1,41.3,0.00,ESE,113,0.0,0.0,69,0.00,,---,0.00,VWS V14.00,2013-08-04 08:19:00,
2013-08-04 02:22:00,51.1,41.3,0.00,ESE,105,2.2,3.1,69,0.00,,---,0.00,VWS V14.00,2013-08-04 08:22:00,
2013-08-04 02:23:00,51.1,41.3,0.00,ESE,116,2.2,3.1,69,0.00,,---,0.00,VWS V14.00,2013-08-04 08:23:00,
2013-08-04 02:24:00,51.1,41.3,0.00,ESE,102,0.0,2.2,69,0.00,,---,0.00,VWS V14.00,2013-08-04 08:24:00,
2013-08-04 02:27:00,51.1,41.3,0.00,SW,214,0.0,0.0,69,0.00,,---,0.00,VWS V14.00,2013-08-04 08:27:00,
2013-08-04 02:28:00,51.1,41.3,0.00,SW,214,0.0,0.0,69,0.00,,---,0.00,VWS V14.00,2013-08-04 08:28:00,
2013-08-04 02:29:00,51.1,41.3,0.00,SW,214,0.0,0.0,69,0.00,,---,0.00,VWS V14.00,2013-08-04 08:29:00,
2013-08-04 02:32:00,50.9,41.1,0.00,SW,219,0.0,0.0,69,0.00,,---,0.00,VWS V14.00,2013-08-04 08:32:00,
2013-08-04 02:33:00,50.9,41.1,0.00,SW,219,0.0,0.0,69,0.00,,---,0.00,VWS V14.00,2013-08-04 08:33:00,
2013-08-04 02:34:00,50.9,41.1,0.00,WNW,295,0.0,0.0,69,0.00,,---,0.00,VWS V14.00,2013-08-04 08:34:00,
2013-08-04 02:37:00,50.9,41.1,0.00,WNW,296,0.0,0.0,69,0.00,,---,0.00,VWS V14.00,2013-08-04 08:37:00,
2013-08-04 02:38:00,50.9,41.1,0.00,WNW,295,0.0,0.0,69,0.00,,---,0.00,VWS V14.00,2013-08-04 08:38:00,
2013-08-04 02:39:00,50.9,41.1,0.00,WNW,296,0.0,0.0,69,0.00,,---,0.00,VWS V14.00,2013-08-04 08:39:00,
2013-08-04 02:43:00,50.7,40.9,0.00,WNW,297,2.2,2.2,69,0.00,,---,0.00,VWS V14.00,2013-08-04 08:43:00,
2013-08-04 02:44:00,50.7,40.9,0.00,WNW,298,0.0,3.6,69,0.00,,---,0.00,VWS V14.00,2013-08-04 08:44:00,
2013-08-04 02:48:00,50.7,40.9,0.00,WNW,298,0.0,0.0,69,0.00,,---,0.00,VWS V14.00,2013-08-04 08:48:00,
2013-08-04 02:49:00,50.7,40.9,0.00,WNW,297,0.0,0.0,69,0.00,,---,0.00,VWS V14.00,2013-08-04 08:49:00,
2013-08-04 02:53:00,50.5,40.8,0.00,West,268,0.0,0.0,69,0.00,,---,0.00,VWS V14.00,2013-08-04 08:53:00,
2013-08-04 02:54:00,50.5,40.8,0.00,West,273,0.0,0.0,69,0.00,,---,0.00,VWS V14.00,2013-08-04 08:54:00,
2013-08-04 02:55:00,50.5,40.8,0.00,West,265,0.0,0.0,69,0.00,,---,0.00,VWS V14.00,2013-08-04 08:55:00,
2013-08-04 02:58:00,50.4,40.6,0.00,West,271,0.0,0.0,69,0.00,,---,0.00,VWS V14.00,2013-08-04 08:58:00,
2013-08-04 02:59:00,50.4,40.6,0.00,West,272,0.0,0.0,69,0.00,,---,0.00,VWS V14.00,2013-08-04 08:59:00,
2013-08-04 03:00:00,50.4,40.6,0.00,West,271,0.0,0.0,69,0.00,,---,0.00,VWS V14.00,2013-08-04 09:00:00,
2013-08-04 03:03:00,50.4,40.6,0.00,West,279,0.0,0.0,69,0.00,,---,0.00,VWS V14.00,2013-08-04 09:03:00,
2013-08-04 03:04:00,50.4,40.6,0.00,WNW,284,0.0,0.0,69,0.00,,---,0.00,VWS V14.00,2013-08-04 09:04:00,
2013-08-04 03:05:00,50.4,40.6,0.00,West,279,0.0,0.0,69,0.00,,---,0.00,VWS V14.00,2013-08-04 09:05:00,
2013-08-04 03:08:00,50.2,40.4,0.00,WNW,285,0.0,0.0,69,0.00,,---,0.00,VWS V14.00,2013-08-04 09:08:00,
2013-08-04 03:09:00,50.2,40.4,0.00,WNW,284,0.0,0.0,69,0.00,,---,0.00,VWS V14.00,2013-08-04 09:09:00,
2013-08-04 03:10:00,50.2,40.4,0.00,WNW,284,0.0,0.0,69,0.00,,---,0.00,VWS V14.00,2013-08-04 09:10:00,
2013-08-04 03:13:00,50.2,40.4,0.00,WNW,287,0.0,0.0,69,0.00,,---,0.00,VWS V14.00,2013-08-04 09:13:00,
2013-08-04 03:14:00,50.2,40.4,0.00,WNW,286,0.0,0.0,69,0.00,,---,0.00,VWS V14.00,2013-08-04 09:14:00,
2013-08-04 03:15:00,50.2,40.4,0.00,WNW,286,0.0,0.0,69,0.00,,---,0.00,VWS V14.00,2013-08-04 09:15:00,
2013-08-04 03:18:00,50.0,40.2,0.00,WNW,287,0.0,0.0,69,0.00,,---,0.00,VWS V14.00,2013-08-04 09:18:00,
2013-08-04 03:19:00,50.0,40.2,0.00,WNW,284,0.0,0.0,69,0.00,,---,0.00,VWS V14.00,2013-08-04 09:19:00,
2013-08-04 03:20:00,50.0,40.2,0.00,WNW,286,0.0,0.0,69,0.00,,---,0.00,VWS V14.00,2013-08-04 09:20:00,
2013-08-04 03:23:00,50.0,40.2,0.00,WNW,287,0.0,0.0,69,0.00,,---,0.00,VWS V14.00,2013-08-04 09:23:00,
2013-08-04 03:24:00,50.0,40.2,0.00,WNW,287,0.0,0.0,69,0.00,,---,0.00,VWS V14.00,2013-08-04 09:24:00,
2013-08-04 03:25:00,50.0,40.2,0.00,West,281,0.0,0.0,69,0.00,,---,0.00,VWS V14.00,2013-08-04 09:25:00,
2013-08-04 03:28:00,50.0,40.2,0.00,West,281,0.0,0.0,69,0.00,,---,0.00,VWS V14.00,2013-08-04 09:28:00,
2013-08-04 03:29:00,50.0,40.2,0.00,ESE,109,4.0,4.0,69,0.00,,---,0.00,VWS V14.00,2013-08-04 09:29:00,
2013-08-04 03:30:00,50.0,40.2,0.00,East,89,3.1,4.0,69,0.00,,---,0.00,VWS V14.00,2013-08-04 09:30:00,
2013-08-04 03:31:00,50.0,40.2,0.00,East,89,0.0,0.0,69,0.00,,---,0.00,VWS V14.00,2013-08-04 09:31:00,
2013-08-04 03:34:00,50.0,39.9,0.00,ESE,105,0.0,0.0,68,0.00,,---,0.00,VWS V14.00,2013-08-04 09:34:00,
2013-08-04 03:35:00,50.0,39.9,0.00,ESE,109,0.0,0.0,68,0.00,,---,0.00,VWS V14.00,2013-08-04 09:35:00,
2013-08-04 03:36:00,50.0,39.9,0.00,WSW,247,0.0,0.0,68,0.00,,---,0.00,VWS V14.00,2013-08-04 09:36:00,
2013-08-04 03:39:00,50.0,40.2,0.00,WSW,245,0.0,0.0,69,0.00,,---,0.00,VWS V14.00,2013-08-04 09:39:00,
2013-08-04 03:40:00,50.0,40.2,0.00,WSW,244,0.0,0.0,69,0.00,,---,0.00,VWS V14.00,2013-08-04 09:40:00,
2013-08-04 03:41:00,50.0,40.2,0.00,WSW,245,0.0,0.0,69,0.00,,---,0.00,VWS V14.00,2013-08-04 09:41:00,
2013-08-04 03:44:00,50.0,40.2,0.00,SSE,165,0.0,0.0,69,0.00,,---,0.00,VWS V14.00,2013-08-04 09:44:00,
2013-08-04 03:45:00,50.0,40.2,0.00,SSE,165,0.0,0.0,69,0.00,,---,0.00,VWS V14.00,2013-08-04 09:45:00,
2013-08-04 03:46:00,49.8,40.1,0.00,SSE,165,0.0,0.0,69,0.00,,---,0.00,VWS V14.00,2013-08-04 09:46:00,
2013-08-04 03:49:00,49.8,40.1,0.00,East,96,0.0,0.0,69,0.00,,---,0.00,VWS V14.00,2013-08-04 09:49:00,
2013-08-04 03:50:00,49.8,40.1,0.00,SSW,199,0.0,0.0,69,0.00,,---,0.00,VWS V14.00,2013-08-04 09:50:00,
2013-08-04 03:51:00,49.8,40.1,0.00,SSW,199,0.0,0.0,69,0.00,,---,0.00,VWS V14.00,2013-08-04 09:51:00,
2013-08-04 03:54:00,49.8,40.1,0.00,SSW,199,0.0,0.0,69,0.00,,---,0.00,VWS V14.00,2013-08-04 09:54:00,
2013-08-04 03:55:00,49.8,40.1,0.00,SSW,199,0.0,0.0,69,0.00,,---,0.00,VWS V14.00,2013-08-04 09:55:00,
2013-08-04 03:56:00,49.8,40.4,0.00,SSW,199,0.0,0.0,70,0.00,,---,0.00,VWS V14.00,2013-08-04 09:56:00,
2013-08-04 03:57:00,49.8,40.1,0.00,SSW,199,0.0,0.0,69,0.00,,---,0.00,VWS V14.00,2013-08-04 09:57:00,
2013-08-04 03:59:00,49.8,40.1,0.00,ESE,105,2.7,3.6,69,0.00,,---,0.00,VWS V14.00,2013-08-04 09:59:00,
2013-08-04 04:00:00,49.8,40.1,0.00,ESE,118,2.2,3.1,69,0.00,,---,0.00,VWS V14.00,2013-08-04 10:00:00,
2013-08-04 04:01:00,49.8,40.1,0.00,ESE,118,0.0,3.1,69,0.00,,---,0.00,VWS V14.00,2013-08-04 10:01:00,
2013-08-04 04:02:00,49.8,40.1,0.00,ESE,111,0.0,0.0,69,0.00,,---,0.00,VWS V14.00,2013-08-04 10:02:00,
2013-08-04 04:05:00,49.8,40.1,0.00,East,101,0.0,0.0,69,0.00,,---,0.00,VWS V14.00,2013-08-04 10:05:00,
2013-08-04 04:06:00,49.8,40.1,0.00,East,101,0.0,0.0,69,0.00,,---,0.00,VWS V14.00,2013-08-04 10:06:00,
2013-08-04 04:07:00,49.8,40.1,0.00,SSE,149,0.0,0.0,69,0.00,,---,0.00,VWS V14.00,2013-08-04 10:07:00,
2013-08-04 04:10:00,49.6,39.5,0.00,SSE,150,0.0,0.0,68,0.00,,---,0.00,VWS V14.00,2013-08-04 10:10:00,
2013-08-04 04:11:00,49.6,39.5,0.00,SSE,150,0.0,0.0,68,0.00,,---,0.00,VWS V14.00,2013-08-04 10:11:00,
2013-08-04 04:12:00,49.6,39.5,0.00,SSE,150,0.0,0.0,68,0.00,,---,0.00,VWS V14.00,2013-08-04 10:12:00,
2013-08-04 04:15:00,49.8,38.5,0.00,SSW,210,0.0,2.2,65,0.00,,---,0.00,VWS V14.00,2013-08-04 10:15:00,
2013-08-04 04:16:00,49.8,38.5,0.00,SSW,210,0.0,2.2,65,0.00,,---,0.00,VWS V14.00,2013-08-04 10:16:00,
2013-08-04 04:17:00,49.8,38.5,0.00,SE,143,0.0,0.0,65,0.00,,---,0.00,VWS V14.00,2013-08-04 10:17:00,
2013-08-04 04:18:00,49.8,38.5,0.00,ESE,104,2.7,2.7,65,0.00,,---,0.00,VWS V14.00,2013-08-04 10:18:00,
2013-08-04 04:21:00,49.8,38.5,0.00,SSE,167,0.0,0.0,65,0.00,,---,0.00,VWS V14.00,2013-08-04 10:21:00,
2013-08-04 04:22:00,49.6,38.0,0.00,SSE,167,0.0,0.0,64,0.00,,---,0.00,VWS V14.00,2013-08-04 10:22:00,
2013-08-04 04:23:00,49.6,38.0,0.00,SSE,167,0.0,0.0,64,0.00,,---,0.00,VWS V14.00,2013-08-04 10:23:00,
2013-08-04 04:26:00,49.6,38.0,0.00,SSW,208,0.0,0.0,64,0.00,,---,0.00,VWS V14.00,2013-08-04 10:26:00,
2013-08-04 04:27:00,49.6,37.6,0.00,SSW,208,0.0,0.0,63,0.00,,---,0.00,VWS V14.00,2013-08-04 10:27:00,
2013-08-04 04:28:00,49.6,37.6,0.00,SSW,208,0.0,0.0,63,0.00,,---,0.00,VWS V14.00,2013-08-04 10:28:00,
2013-08-04 04:31:00,49.6,37.6,0.00,ESE,103,0.0,2.2,63,0.00,,---,0.00,VWS V14.00,2013-08-04 10:31:00,
2013-08-04 04:32:00,49.6,37.6,0.00,ESE,105,0.0,0.0,63,0.00,,---,0.00,VWS V14.00,2013-08-04 10:32:00,
2013-08-04 04:33:00,49.6,37.6,0.00,ESE,111,0.0,3.6,63,0.00,,---,0.00,VWS V14.00,2013-08-04 10:33:00,
2013-08-04 04:36:00,49.6,37.6,0.00,SE,130,4.0,4.0,63,0.00,,---,0.00,VWS V14.00,2013-08-04 10:36:00,
2013-08-04 04:37:00,49.6,37.6,0.00,ESE,116,0.0,2.7,63,0.00,,---,0.00,VWS V14.00,2013-08-04 10:37:00,
2013-08-04 04:38:00,49.6,37.2,0.00,ESE,117,0.0,0.0,62,0.00,,---,0.00,VWS V14.00,2013-08-04 10:38:00,
2013-08-04 04:41:00,49.6,37.2,0.00,SW,222,0.0,3.1,62,0.00,,---,0.00,VWS V14.00,2013-08-04 10:41:00,
2013-08-04 04:42:00,49.6,37.2,0.00,SW,222,0.0,3.1,62,0.00,,---,0.00,VWS V14.00,2013-08-04 10:42:00,
2013-08-04 04:43:00,49.6,37.2,0.00,SW,222,0.0,0.0,62,0.00,,---,0.00,VWS V14.00,2013-08-04 10:43:00,
2013-08-04 04:47:00,49.6,37.2,0.00,SW,222,0.0,0.0,62,0.00,,---,0.00,VWS V14.00,2013-08-04 10:47:00,
2013-08-04 04:48:00,49.6,37.2,0.00,SW,222,0.0,0.0,62,0.00,,---,0.00,VWS V14.00,2013-08-04 10:48:00,
2013-08-04 04:52:00,49.6,37.2,0.00,East,82,3.1,3.1,62,0.00,,---,0.00,VWS V14.00,2013-08-04 10:52:00,
2013-08-04 04:53:00,49.6,37.2,0.00,East,84,0.0,0.0,62,0.00,,---,0.00,VWS V14.00,2013-08-04 10:53:00,
2013-08-04 04:57:00,49.5,37.0,0.00,WNW,283,2.7,2.7,62,0.00,,---,0.00,VWS V14.00,2013-08-04 10:57:00,
2013-08-04 04:58:00,49.5,37.0,0.00,ENE,74,2.7,2.7,62,0.00,,---,0.00,VWS V14.00,2013-08-04 10:58:00,
2013-08-04 04:59:00,49.5,37.0,0.00,SW,220,3.1,3.1,62,0.00,,---,0.00,VWS V14.00,2013-08-04 10:59:00,
2013-08-04 05:02:00,49.5,36.2,0.00,West,259,0.0,0.0,60,0.00,,---,0.00,VWS V14.00,2013-08-04 11:02:00,
2013-08-04 05:03:00,49.5,36.2,0.00,WSW,257,0.0,0.0,60,0.00,,---,0.00,VWS V14.00,2013-08-04 11:03:00,
2013-08-04 05:04:00,49.5,36.6,0.00,South,182,0.0,0.0,61,0.00,,---,0.00,VWS V14.00,2013-08-04 11:04:00,
2013-08-04 05:07:00,49.5,36.6,0.00,South,183,0.0,0.0,61,0.00,,---,0.00,VWS V14.00,2013-08-04 11:07:00,
2013-08-04 05:08:00,49.5,36.6,0.00,NE,49,0.0,0.0,61,0.00,,---,0.00,VWS V14.00,2013-08-04 11:08:00,
2013-08-04 05:09:00,49.5,36.6,0.00,SE,137,0.0,2.2,61,0.00,,---,0.00,VWS V14.00,2013-08-04 11:09:00,
2013-08-04 05:12:00,49.5,36.6,0.00,SE,141,0.0,0.0,61,0.00,,---,0.00,VWS V14.00,2013-08-04 11:12:00,
2013-08-04 05:13:00,49.5,36.6,0.00,SE,129,0.0,0.0,61,0.00,,---,0.00,VWS V14.00,2013-08-04 11:13:00,
2013-08-04 05:14:00,49.5,36.6,0.00,SE,130,0.0,0.0,61,0.00,,---,0.00,VWS V14.00,2013-08-04 11:14:00,
2013-08-04 05:17:00,49.5,36.6,0.00,SE,130,0.0,0.0,61,0.00,,---,0.00,VWS V14.00,2013-08-04 11:17:00,
2013-08-04 05:18:00,49.5,36.6,0.00,East,84,0.0,3.1,61,0.00,,---,0.00,VWS V14.00,2013-08-04 11:18:00,
2013-08-04 05:19:00,49.5,36.6,0.00,East,83,0.0,3.1,61,0.00,,---,0.00,VWS V14.00,2013-08-04 11:19:00,
2013-08-04 05:22:00,49.5,36.2,0.00,ESE,112,0.0,0.0,60,0.00,,---,0.00,VWS V14.00,2013-08-04 11:22:00,
2013-08-04 05:23:00,49.5,36.2,0.00,ESE,112,0.0,0.0,60,0.00,,---,0.00,VWS V14.00,2013-08-04 11:23:00,
2013-08-04 05:24:00,49.5,36.2,0.00,ESE,112,0.0,0.0,60,0.00,,---,0.00,VWS V14.00,2013-08-04 11:24:00,
2013-08-04 05:27:00,49.3,36.0,0.00,WSW,258,0.0,0.0,60,0.00,,---,0.00,VWS V14.00,2013-08-04 11:27:00,
2013-08-04 05:28:00,49.3,36.4,0.00,WSW,257,0.0,0.0,61,0.00,,---,0.00,VWS V14.00,2013-08-04 11:28:00,
2013-08-04 05:29:00,49.3,36.4,0.00,WSW,257,0.0,0.0,61,0.00,,---,0.00,VWS V14.00,2013-08-04 11:29:00,
2013-08-04 05:30:00,49.3,36.4,0.00,WSW,258,0.0,0.0,61,0.00,,---,0.00,VWS V14.00,2013-08-04 11:30:00,
2013-08-04 05:32:00,49.3,36.0,0.00,WSW,258,0.0,0.0,60,0.00,,---,0.00,VWS V14.00,2013-08-04 11:32:00,
2013-08-04 05:33:00,49.3,36.0,0.00,WSW,241,0.0,0.0,60,0.00,,---,0.00,VWS V14.00,2013-08-04 11:33:00,
2013-08-04 05:34:00,49.3,36.0,0.00,WSW,242,0.0,0.0,60,0.00,,---,0.00,VWS V14.00,2013-08-04 11:34:00,
2013-08-04 05:35:00,49.3,36.0,0.00,SW,235,0.0,0.0,60,0.00,,---,0.00,VWS V14.00,2013-08-04 11:35:00,
2013-08-04 05:38:00,49.5,35.7,0.00,SE,134,0.0,3.1,59,0.00,,---,0.00,VWS V14.00,2013-08-04 11:38:00,
2013-08-04 05:39:00,49.5,35.7,0.00,SSE,151,0.0,0.0,59,0.00,,---,0.00,VWS V14.00,2013-08-04 11:39:00,
2013-08-04 05:40:00,49.5,35.7,0.00,SSE,153,0.0,0.0,59,0.00,,---,0.00,VWS V14.00,2013-08-04 11:40:00,
2013-08-04 05:43:00,49.5,35.7,0.00,ESE,108,2.7,3.1,59,0.00,,---,0.00,VWS V14.00,2013-08-04 11:43:00,
2013-08-04 05:44:00,49.5,35.7,0.00,SW,227,0.0,2.7,59,0.00,,---,0.00,VWS V14.00,2013-08-04 11:44:00,
2013-08-04 05:45:00,49.5,35.7,0.00,South,190,3.6,3.6,59,0.00,,---,0.00,VWS V14.00,2013-08-04 11:45:00,
2013-08-04 05:48:00,49.5,35.7,0.00,West,275,0.0,0.0,59,0.00,,---,0.00,VWS V14.00,2013-08-04 11:48:00,
2013-08-04 05:49:00,49.6,35.5,0.00,West,275,0.0,0.0,58,0.00,,---,0.00,VWS V14.00,2013-08-04 11:49:00,
2013-08-04 05:50:00,49.6,35.5,0.00,SW,230,0.0,0.0,58,0.00,,---,0.00,VWS V14.00,2013-08-04 11:50:00,
2013-08-04 05:53:00,49.6,35.9,0.00,SW,230,0.0,0.0,59,0.00,,---,0.00,VWS V14.00,2013-08-04 11:53:00,
2013-08-04 05:54:00,49.6,35.9,0.00,South,178,0.0,0.0,59,0.00,,---,0.00,VWS V14.00,2013-08-04 11:54:00,
2013-08-04 05:55:00,49.6,35.9,0.00,East,100,2.2,2.2,59,0.00,,---,0.00,VWS V14.00,2013-08-04 11:55:00,
2013-08-04 05:56:00,49.6,35.9,0.00,East,96,0.0,4.0,59,0.00,,---,0.00,VWS V14.00,2013-08-04 11:56:00,
2013-08-04 05:58:00,49.6,35.9,0.00,SSE,156,0.0,3.1,59,0.00,,---,0.00,VWS V14.00,2013-08-04 11:58:00,
2013-08-04 05:59:00,49.6,36.3,0.00,ESE,109,5.8,5.8,60,0.00,,---,0.00,VWS V14.00,2013-08-04 11:59:00,
2013-08-04 06:00:00,49.5,36.2,0.00,East,93,3.6,5.8,60,0.00,,---,0.00,VWS V14.00,2013-08-04 12:00:00,
2013-08-04 06:01:00,49.5,35.7,0.00,East,99,2.2,2.7,59,0.00,,---,0.00,VWS V14.00,2013-08-04 12:01:00,
2013-08-04 06:03:00,49.5,36.2,0.00,East,94,0.0,4.0,60,0.00,,---,0.00,VWS V14.00,2013-08-04 12:03:00,
2013-08-04 06:04:00,49.5,36.2,0.00,East,93,0.0,0.0,60,0.00,,---,0.00,VWS V14.00,2013-08-04 12:04:00,
2013-08-04 06:05:00,49.5,36.2,0.00,East,93,0.0,0.0,60,0.00,,---,0.00,VWS V14.00,2013-08-04 12:05:00,
2013-08-04 06:06:00,49.5,36.2,0.00,ENE,72,0.0,0.0,60,0.00,,---,0.00,VWS V14.00,2013-08-04 12:06:00,
2013-08-04 06:08:00,49.5,36.2,0.00,SSW,195,0.0,0.0,60,0.00,,---,0.00,VWS V14.00,2013-08-04 12:08:00,
2013-08-04 06:09:00,49.5,35.7,0.00,SE,129,3.6,4.9,59,0.00,,---,0.00,VWS V14.00,2013-08-04 12:09:00,
2013-08-04 06:10:00,49.5,35.7,0.00,SE,129,0.0,4.9,59,0.00,,---,0.00,VWS V14.00,2013-08-04 12:10:00,
2013-08-04 06:11:00,49.5,35.7,0.00,SE,129,0.0,0.0,59,0.00,,---,0.00,VWS V14.00,2013-08-04 12:11:00,
2013-08-04 06:12:00,49.5,35.7,0.00,SE,129,0.0,0.0,59,0.00,,---,0.00,VWS V14.00,2013-08-04 12:12:00,
2013-08-04 06:13:00,49.6,35.9,0.00,SW,220,0.0,0.0,59,0.00,,---,0.00,VWS V14.00,2013-08-04 12:13:00,
2013-08-04 06:14:00,49.6,35.9,0.00,SSW,205,0.0,0.0,59,0.00,,---,0.00,VWS V14.00,2013-08-04 12:14:00,
2013-08-04 06:15:00,49.6,35.9,0.00,SSE,155,2.7,2.7,59,0.00,,---,0.00,VWS V14.00,2013-08-04 12:15:00,
2013-08-04 06:16:00,49.6,35.9,0.00,SSE,155,0.0,2.7,59,0.00,,---,0.00,VWS V14.00,2013-08-04 12:16:00,
2013-08-04 06:17:00,49.6,35.9,0.00,WSW,240,0.0,2.2,59,0.00,,---,0.00,VWS V14.00,2013-08-04 12:17:00,
2013-08-04 06:19:00,49.6,35.9,0.00,South,171,0.0,0.0,59,0.00,,---,0.00,VWS V14.00,2013-08-04 12:19:00,
2013-08-04 06:20:00,49.6,35.9,0.00,South,184,0.0,0.0,59,0.00,,---,0.00,VWS V14.00,2013-08-04 12:20:00,
2013-08-04 06:21:00,49.6,35.9,0.00,South,184,0.0,0.0,59,0.00,,---,0.00,VWS V14.00,2013-08-04 12:21:00,
2013-08-04 06:22:00,49.5,35.7,0.00,South,184,0.0,0.0,59,0.00,,---,0.00,VWS V14.00,2013-08-04 12:22:00,
2013-08-04 06:24:00,49.5,35.7,0.00,South,184,0.0,0.0,59,0.00,,---,0.00,VWS V14.00,2013-08-04 12:24:00,
2013-08-04 06:25:00,49.5,35.3,0.00,SW,229,0.0,0.0,58,0.00,,---,0.00,VWS V14.00,2013-08-04 12:25:00,
2013-08-04 06:26:00,49.5,35.3,0.00,SW,226,0.0,0.0,58,0.00,,---,0.00,VWS V14.00,2013-08-04 12:26:00,
2013-08-04 06:27:00,49.5,35.3,0.00,ESE,111,2.2,2.2,58,0.00,,---,0.00,VWS V14.00,2013-08-04 12:27:00,
2013-08-04 06:29:00,49.5,35.7,0.00,ESE,111,0.0,0.0,59,0.00,,---,0.00,VWS V14.00,2013-08-04 12:29:00,
2013-08-04 06:30:00,49.5,35.7,0.00,ESE,111,0.0,0.0,59,0.00,,---,0.00,VWS V14.00,2013-08-04 12:30:00,
2013-08-04 06:32:00,49.5,35.7,0.00,ESE,108,0.0,0.0,59,0.00,,---,0.00,VWS V14.00,2013-08-04 12:32:00,
2013-08-04 06:34:00,49.5,35.7,0.00,ESE,109,0.0,0.0,59,0.00,,---,0.00,VWS V14.00,2013-08-04 12:34:00,
2013-08-04 06:35:00,49.5,35.7,0.00,ESE,108,0.0,0.0,59,0.00,,---,0.00,VWS V14.00,2013-08-04 12:35:00,
2013-08-04 06:37:00,49.5,35.7,0.00,SE,137,0.0,2.7,59,0.00,,---,0.00,VWS V14.00,2013-08-04 12:37:00,
2013-08-04 06:39:00,49.5,35.7,0.00,East,84,4.0,4.0,59,0.00,,---,0.00,VWS V14.00,2013-08-04 12:39:00,
2013-08-04 06:40:00,49.5,35.7,0.00,East,92,0.0,4.0,59,0.00,,---,0.00,VWS V14.00,2013-08-04 12:40:00,
2013-08-04 06:42:00,49.5,35.7,0.00,East,92,0.0,0.0,59,0.00,,---,0.00,VWS V14.00,2013-08-04 12:42:00,
2013-08-04 06:44:00,49.5,35.3,0.00,East,92,0.0,0.0,58,0.00,,---,0.00,VWS V14.00,2013-08-04 12:44:00,
2013-08-04 06:45:00,49.5,35.7,0.00,ESE,102,0.0,0.0,59,0.00,,---,0.00,VWS V14.00,2013-08-04 12:45:00,
2013-08-04 06:46:00,49.5,35.7,0.00,ESE,102,0.0,0.0,59,0.00,,---,0.00,VWS V14.00,2013-08-04 12:46:00,
2013-08-04 06:47:00,49.5,35.7,0.00,ESE,103,0.0,0.0,59,0.00,,---,0.00,VWS V14.00,2013-08-04 12:47:00,
2013-08-04 06:49:00,49.5,35.3,0.00,East,83,0.0,2.7,58,0.00,,---,0.00,VWS V14.00,2013-08-04 12:49:00,
2013-08-04 06:50:00,49.6,35.5,0.00,SW,233,0.0,0.0,58,0.00,,---,0.00,VWS V14.00,2013-08-04 12:50:00,
2013-08-04 06:51:00,49.6,35.5,0.00,SW,233,0.0,0.0,58,0.00,,---,0.00,VWS V14.00,2013-08-04 12:51:00,
2013-08-04 06:52:00,49.6,35.5,0.00,East,83,0.0,4.0,58,0.00,,---,0.00,VWS V14.00,2013-08-04 12:52:00,
2013-08-04 06:54:00,49.6,35.5,0.00,South,185,3.6,3.6,58,0.00,,---,0.00,VWS V14.00,2013-08-04 12:54:00,
2013-08-04 06:55:00,49.6,35.5,0.00,SW,228,0.0,3.6,58,0.00,,---,0.00,VWS V14.00,2013-08-04 12:55:00,
2013-08-04 06:56:00,49.6,35.5,0.00,SW,228,0.0,3.6,58,0.00,,---,0.00,VWS V14.00,2013-08-04 12:56:00,
2013-08-04 06:57:00,49.8,35.7,0.00,SSE,162,0.0,0.0,58,0.00,,---,0.00,VWS V14.00,2013-08-04 12:57:00,
2013-08-04 07:00:00,49.8,35.7,0.00,ENE,69,0.0,0.0,58,0.00,,---,0.00,VWS V14.00,2013-08-04 13:00:00,
2013-08-04 07:01:00,50.0,35.4,0.00,ENE,69,0.0,0.0,57,0.00,,---,0.00,VWS V14.00,2013-08-04 13:01:00,
2013-08-04 07:02:00,50.0,35.4,0.00,WSW,257,0.0,0.0,57,0.00,,---,0.00,VWS V14.00,2013-08-04 13:02:00,
2013-08-04 07:03:00,50.0,35.4,0.00,West,281,0.0,0.0,57,0.00,,---,0.00,VWS V14.00,2013-08-04 13:03:00,
2013-08-04 07:05:00,50.0,35.4,0.00,East,91,0.0,3.1,57,0.00,,---,0.00,VWS V14.00,2013-08-04 13:05:00,
2013-08-04 07:06:00,50.2,35.5,0.00,SW,231,0.0,2.7,57,0.00,,---,0.00,VWS V14.00,2013-08-04 13:06:00,
2013-08-04 07:07:00,50.2,35.5,0.00,SW,232,0.0,0.0,57,0.00,,---,0.00,VWS V14.00,2013-08-04 13:07:00,
2013-08-04 07:08:00,50.2,35.5,0.00,North,1,0.0,0.0,57,0.00,,---,0.00,VWS V14.00,2013-08-04 13:08:00,
2013-08-04 07:10:00,50.2,35.5,0.00,ENE,76,4.0,4.0,57,0.00,,---,0.00,VWS V14.00,2013-08-04 13:10:00,
2013-08-04 07:11:00,50.2,35.5,0.00,East,80,0.0,3.1,57,0.00,,---,0.00,VWS V14.00,2013-08-04 13:11:00,
2013-08-04 07:12:00,50.2,35.5,0.00,ENE,71,2.7,2.7,57,0.00,,---,0.00,VWS V14.00,2013-08-04 13:12:00,
2013-08-04 07:13:00,50.2,35.5,0.00,ENE,71,0.0,0.0,57,0.00,,---,0.00,VWS V14.00,2013-08-04 13:13:00,
2013-08-04 07:15:00,50.2,36.0,0.00,ENE,68,0.0,0.0,58,0.00,,---,0.00,VWS V14.00,2013-08-04 13:15:00,
2013-08-04 07:16:00,50.2,36.0,0.00,East,94,0.0,0.0,58,0.00,,---,0.00,VWS V14.00,2013-08-04 13:16:00,
2013-08-04 07:17:00,50.2,36.0,0.00,East,95,0.0,0.0,58,0.00,,---,0.00,VWS V14.00,2013-08-04 13:17:00,
2013-08-04 07:18:00,50.2,36.0,0.00,East,95,0.0,0.0,58,0.00,,---,0.00,VWS V14.00,2013-08-04 13:18:00,
2013-08-04 07:20:00,50.4,36.6,0.00,NE,50,0.0,0.0,59,0.00,,---,0.00,VWS V14.00,2013-08-04 13:20:00,
2013-08-04 07:21:00,50.4,36.6,0.00,East,88,0.0,0.0,59,0.00,,---,0.00,VWS V14.00,2013-08-04 13:21:00,
2013-08-04 07:22:00,50.4,36.6,0.00,East,88,0.0,0.0,59,0.00,,---,0.00,VWS V14.00,2013-08-04 13:22:00,
2013-08-04 07:23:00,50.4,36.6,0.00,East,79,0.0,0.0,59,0.00,,---,0.00,VWS V14.00,2013-08-04 13:23:00,
2013-08-04 07:25:00,50.5,37.2,0.00,East,79,0.0,0.0,60,0.00,,---,0.00,VWS V14.00,2013-08-04 13:25:00,
2013-08-04 07:27:00,50.5,37.2,0.00,South,190,0.0,0.0,60,0.00,,---,0.00,VWS V14.00,2013-08-04 13:27:00,
2013-08-04 07:28:00,50.5,37.2,0.00,SE,144,0.0,0.0,60,0.00,,---,0.00,VWS V14.00,2013-08-04 13:28:00,
2013-08-04 07:29:00,50.7,37.4,0.00,East,88,4.0,4.0,60,0.00,,---,0.00,VWS V14.00,2013-08-04 13:29:00,
2013-08-04 07:30:00,50.7,37.4,0.00,NE,50,0.0,0.0,60,0.00,,---,0.00,VWS V14.00,2013-08-04 13:30:00,
2013-08-04 07:32:00,50.9,37.5,0.00,ENE,58,0.0,0.0,60,0.00,,---,0.00,VWS V14.00,2013-08-04 13:32:00,
2013-08-04 07:33:00,50.9,37.5,0.00,ESE,116,2.2,2.2,60,0.00,,---,0.00,VWS V14.00,2013-08-04 13:33:00,
2013-08-04 07:34:00,50.9,37.5,0.00,SE,126,0.0,0.0,60,0.00,,---,0.00,VWS V14.00,2013-08-04 13:34:00,
2013-08-04 07:35:00,50.9,37.5,0.00,SE,125,0.0,0.0,60,0.00,,---,0.00,VWS V14.00,2013-08-04 13:35:00,
2013-08-04 07:37:00,51.1,38.1,0.00,SE,125,0.0,0.0,61,0.00,,---,0.00,VWS V14.00,2013-08-04 13:37:00,
2013-08-04 07:38:00,51.1,38.1,0.00,East,89,2.7,2.7,61,0.00,,---,0.00,VWS V14.00,2013-08-04 13:38:00,
2013-08-04 07:39:00,51.1,37.7,0.00,East,89,0.0,0.0,60,0.00,,---,0.00,VWS V14.00,2013-08-04 13:39:00,
2013-08-04 07:41:00,51.3,38.3,0.00,East,89,0.0,0.0,61,0.00,,---,0.00,VWS V14.00,2013-08-04 13:41:00,
2013-08-04 07:42:00,51.3,38.3,0.00,East,89,0.0,0.0,61,0.00,,---,0.00,VWS V14.00,2013-08-04 13:42:00,
2013-08-04 07:43:00,51.3,38.3,0.00,East,89,0.0,0.0,61,0.00,,---,0.00,VWS V14.00,2013-08-04 13:43:00,
2013-08-04 07:45:00,51.4,38.5,0.00,East,90,0.0,0.0,61,0.00,,---,0.00,VWS V14.00,2013-08-04 13:45:00,
2013-08-04 07:46:00,51.4,38.9,0.00,East,90,0.0,0.0,62,0.00,,---,0.00,VWS V14.00,2013-08-04 13:46:00,
2013-08-04 07:48:00,51.6,39.0,0.00,WNW,293,0.0,3.1,62,0.00,,---,0.00,VWS V14.00,2013-08-04 13:48:00,
2013-08-04 07:49:00,51.6,39.0,0.00,WNW,293,0.0,0.0,62,0.00,,---,0.00,VWS V14.00,2013-08-04 13:49:00,
2013-08-04 07:50:00,51.6,39.0,0.00,WNW,293,0.0,0.0,62,0.00,,---,0.00,VWS V14.00,2013-08-04 13:50:00,
2013-08-04 07:51:00,51.8,38.8,0.00,WNW,293,0.0,0.0,61,0.00,,---,0.00,VWS V14.00,2013-08-04 13:51:00,
2013-08-04 07:53:00,51.8,39.2,0.00,WNW,293,0.0,0.0,62,0.00,,---,0.00,VWS V14.00,2013-08-04 13:53:00,
2013-08-04 07:54:00,52.0,39.4,0.00,WNW,293,0.0,0.0,62,0.00,,---,0.00,VWS V14.00,2013-08-04 13:54:00,
2013-08-04 07:55:00,52.0,39.4,0.00,WNW,293,0.0,0.0,62,0.00,,---,0.00,VWS V14.00,2013-08-04 13:55:00,
2013-08-04 07:56:00,52.0,39.4,0.00,WNW,293,0.0,0.0,62,0.00,,---,0.00,VWS V14.00,2013-08-04 13:56:00,
2013-08-04 07:58:00,52.2,39.5,0.00,WNW,299,0.0,0.0,62,0.00,,---,0.00,VWS V14.00,2013-08-04 13:58:00,
2013-08-04 07:59:00,52.2,39.5,0.00,WNW,299,0.0,0.0,62,0.00,,---,0.00,VWS V14.00,2013-08-04 13:59:00,
2013-08-04 08:00:00,52.2,39.5,0.00,SSW,204,0.0,0.0,62,0.00,,---,0.00,VWS V14.00,2013-08-04 14:00:00,
2013-08-04 08:01:00,52.3,40.1,0.00,ESE,112,0.0,0.0,63,0.00,,---,0.00,VWS V14.00,2013-08-04 14:01:00,
2013-08-04 08:03:00,52.3,40.1,0.00,ESE,111,0.0,0.0,63,0.00,,---,0.00,VWS V14.00,2013-08-04 14:03:00,
2013-08-04 08:04:00,52.3,40.1,0.00,ESE,111,0.0,0.0,63,0.00,,---,0.00,VWS V14.00,2013-08-04 14:04:00,
2013-08-04 08:05:00,52.3,39.7,0.00,ESE,111,0.0,0.0,62,0.00,,---,0.00,VWS V14.00,2013-08-04 14:05:00,
2013-08-04 08:06:00,52.3,39.7,0.00,ESE,111,0.0,0.0,62,0.00,,---,0.00,VWS V14.00,2013-08-04 14:06:00,
2013-08-04 08:08:00,52.5,39.9,0.00,East,97,0.0,0.0,62,0.00,,---,0.00,VWS V14.00,2013-08-04 14:08:00,
2013-08-04 08:09:00,52.5,39.9,0.00,ESE,106,0.0,3.1,62,0.00,,---,0.00,VWS V14.00,2013-08-04 14:09:00,
2013-08-04 08:10:00,52.5,39.9,0.00,ESE,104,0.0,0.0,62,0.00,,---,0.00,VWS V14.00,2013-08-04 14:10:00,
2013-08-04 08:12:00,52.7,40.1,0.00,ESE,106,0.0,0.0,62,0.00,,---,0.00,VWS V14.00,2013-08-04 14:12:00,
2013-08-04 08:13:00,52.7,40.1,0.00,ESE,106,0.0,0.0,62,0.00,,---,0.00,VWS V14.00,2013-08-04 14:13:00,
2013-08-04 08:14:00,52.7,40.1,0.00,ESE,106,0.0,0.0,62,0.00,,---,0.00,VWS V14.00,2013-08-04 14:14:00,
2013-08-04 08:15:00,52.9,40.2,0.00,ESE,106,0.0,0.0,62,0.00,,---,0.00,VWS V14.00,2013-08-04 14:15:00,
2013-08-04 08:17:00,52.9,40.2,0.00,ESE,105,0.0,0.0,62,0.00,,---,0.00,VWS V14.00,2013-08-04 14:17:00,
2013-08-04 08:18:00,52.9,40.2,0.00,East,90,2.2,3.1,62,0.00,,---,0.00,VWS V14.00,2013-08-04 14:18:00,
2013-08-04 08:19:00,53.1,40.4,0.00,East,89,0.0,0.0,62,0.00,,---,0.00,VWS V14.00,2013-08-04 14:19:00,
2013-08-04 08:20:00,53.1,40.4,0.00,East,90,0.0,0.0,62,0.00,,---,0.00,VWS V14.00,2013-08-04 14:20:00,
2013-08-04 08:22:00,53.1,40.4,0.00,East,90,0.0,0.0,62,0.00,,---,0.00,VWS V14.00,2013-08-04 14:22:00,
2013-08-04 08:23:00,53.2,41.0,0.00,East,90,0.0,0.0,63,0.00,,---,0.00,VWS V14.00,2013-08-04 14:23:00,
2013-08-04 08:24:00,53.2,41.0,0.00,East,90,0.0,0.0,63,0.00,,---,0.00,VWS V14.00,2013-08-04 14:24:00,
2013-08-04 08:25:00,53.4,41.2,0.00,East,90,0.0,0.0,63,0.00,,---,0.00,VWS V14.00,2013-08-04 14:25:00,
2013-08-04 08:27:00,53.4,41.2,0.00,East,90,0.0,0.0,63,0.00,,---,0.00,VWS V14.00,2013-08-04 14:27:00,
2013-08-04 08:28:00,53.6,41.3,0.00,East,90,0.0,0.0,63,0.00,,---,0.00,VWS V14.00,2013-08-04 14:28:00,
2013-08-04 08:29:00,53.6,41.3,0.00,East,90,0.0,0.0,63,0.00,,---,0.00,VWS V14.00,2013-08-04 14:29:00,
2013-08-04 08:30:00,53.8,41.9,0.00,East,90,0.0,0.0,64,0.00,,---,0.00,VWS V14.00,2013-08-04 14:30:00,
2013-08-04 08:32:00,54.0,42.5,0.00,ENE,64,0.0,0.0,65,0.00,,---,0.00,VWS V14.00,2013-08-04 14:32:00,
2013-08-04 08:33:00,54.1,41.8,0.00,NW,313,0.0,0.0,63,0.00,,---,0.00,VWS V14.00,2013-08-04 14:33:00,
2013-08-04 08:34:00,54.1,41.8,0.00,NW,313,0.0,0.0,63,0.00,,---,0.00,VWS V14.00,2013-08-04 14:34:00,
2013-08-04 08:35:00,54.3,42.0,0.00,NW,313,0.0,0.0,63,0.00,,---,0.00,VWS V14.00,2013-08-04 14:35:00,
2013-08-04 08:37:00,54.5,42.6,0.00,NW,314,0.0,0.0,64,0.00,,---,0.00,VWS V14.00,2013-08-04 14:37:00,
2013-08-04 08:39:00,54.5,42.6,0.00,NW,313,2.2,2.2,64,0.00,,---,0.00,VWS V14.00,2013-08-04 14:39:00,
2013-08-04 08:41:00,54.7,43.2,0.00,ENE,75,0.0,0.0,65,0.00,,---,0.00,VWS V14.00,2013-08-04 14:41:00,
2013-08-04 08:42:00,54.9,43.3,0.00,ENE,74,0.0,0.0,65,0.00,,---,0.00,VWS V14.00,2013-08-04 14:42:00,
2013-08-04 08:44:00,55.0,43.1,0.00,ENE,75,0.0,0.0,64,0.00,,---,0.00,VWS V14.00,2013-08-04 14:44:00,
2013-08-04 08:46:00,55.2,43.3,0.00,ENE,75,0.0,0.0,64,0.00,,---,0.00,VWS V14.00,2013-08-04 14:46:00,
2013-08-04 08:47:00,55.4,43.8,0.00,ENE,75,0.0,0.0,65,0.00,,---,0.00,VWS V14.00,2013-08-04 14:47:00,
2013-08-04 08:49:00,55.8,43.8,0.00,ENE,75,0.0,0.0,64,0.00,,---,0.00,VWS V14.00,2013-08-04 14:49:00,
2013-08-04 08:50:00,55.8,43.8,0.00,ENE,75,0.0,0.0,64,0.00,,---,0.00,VWS V14.00,2013-08-04 14:50:00,
2013-08-04 08:51:00,55.8,43.8,0.00,ENE,75,0.0,0.0,64,0.00,,---,0.00,VWS V14.00,2013-08-04 14:51:00,
2013-08-04 08:52:00,55.9,44.0,0.00,ENE,74,0.0,0.0,64,0.00,,---,0.00,VWS V14.00,2013-08-04 14:52:00,
2013-08-04 08:53:00,55.9,44.4,0.00,ENE,75,0.0,0.0,65,0.00,,---,0.00,VWS V14.00,2013-08-04 14:53:00,
2013-08-04 08:55:00,56.1,44.5,0.00,East,100,0.0,0.0,65,0.00,,---,0.00,VWS V14.00,2013-08-04 14:55:00,
2013-08-04 08:56:00,56.3,45.1,0.00,ESE,102,0.0,0.0,66,0.00,,---,0.00,VWS V14.00,2013-08-04 14:56:00,
2013-08-04 08:57:00,56.3,45.1,0.00,East,100,0.0,0.0,66,0.00,,---,0.00,VWS V14.00,2013-08-04 14:57:00,
2013-08-04 08:58:00,56.5,45.3,0.00,ESE,102,0.0,0.0,66,0.00,,---,0.00,VWS V14.00,2013-08-04 14:58:00,
2013-08-04 09:00:00,56.7,45.8,0.00,ESE,102,0.0,0.0,67,0.00,,---,0.00,VWS V14.00,2013-08-04 15:00:00,
2013-08-04 09:01:00,56.8,45.6,0.00,ESE,102,0.0,0.0,66,0.00,,---,0.00,VWS V14.00,2013-08-04 15:01:00,
2013-08-04 09:02:00,57.0,45.8,0.00,ESE,102,0.0,0.0,66,0.00,,---,0.00,VWS V14.00,2013-08-04 15:02:00,
2013-08-04 09:03:00,57.2,45.6,0.00,East,101,0.0,0.0,65,0.00,,---,0.00,VWS V14.00,2013-08-04 15:03:00,
2013-08-04 09:05:00,57.4,45.3,0.00,ESE,102,0.0,0.0,64,0.00,,---,0.00,VWS V14.00,2013-08-04 15:05:00,
2013-08-04 09:07:00,57.6,45.1,0.00,ESE,102,0.0,0.0,63,0.00,,---,0.00,VWS V14.00,2013-08-04 15:07:00,
2013-08-04 09:08:00,57.6,45.1,0.00,ESE,102,0.0,0.0,63,0.00,,---,0.00,VWS V14.00,2013-08-04 15:08:00,
2013-08-04 09:10:00,57.9,45.4,0.00,ESE,102,0.0,0.0,63,0.00,,---,0.00,VWS V14.00,2013-08-04 15:10:00,
2013-08-04 09:12:00,58.3,44.5,0.00,ESE,102,0.0,0.0,60,0.00,,---,0.00,VWS V14.00,2013-08-04 15:12:00,
2013-08-04 09:13:00,58.3,44.5,0.00,East,101,0.0,0.0,60,0.00,,---,0.00,VWS V14.00,2013-08-04 15:13:00,
2013-08-04 09:15:00,58.6,43.9,0.00,ESE,102,0.0,0.0,58,0.00,,---,0.00,VWS V14.00,2013-08-04 15:15:00,
2013-08-04 09:18:00,59.0,43.8,0.00,ESE,102,0.0,0.0,57,0.00,,---,0.00,VWS V14.00,2013-08-04 15:18:00,
2013-08-04 09:20:00,59.2,44.4,0.00,East,101,0.0,0.0,58,0.00,,---,0.00,VWS V14.00,2013-08-04 15:20:00,
2013-08-04 09:23:00,59.5,44.3,0.00,East,100,0.0,0.0,57,0.00,,---,0.00,VWS V14.00,2013-08-04 15:23:00,
2013-08-04 09:25:00,59.7,44.5,0.00,ESE,111,0.0,0.0,57,0.00,,---,0.00,VWS V14.00,2013-08-04 15:25:00,
2013-08-04 09:28:00,60.1,44.3,0.00,East,93,2.7,2.7,56,0.00,,---,0.00,VWS V14.00,2013-08-04 15:28:00,
2013-08-04 09:30:00,60.3,43.1,0.00,East,93,0.0,2.2,53,0.00,,---,0.00,VWS V14.00,2013-08-04 15:30:00,
2013-08-04 09:33:00,60.6,43.4,0.00,East,93,0.0,0.0,53,0.00,,---,0.00,VWS V14.00,2013-08-04 15:33:00,
2013-08-04 09:35:00,60.8,43.1,0.00,East,93,0.0,0.0,52,0.00,,---,0.00,VWS V14.00,2013-08-04 15:35:00,
2013-08-04 09:36:00,60.8,43.1,0.00,East,93,0.0,0.0,52,0.00,,---,0.00,VWS V14.00,2013-08-04 15:36:00,
2013-08-04 09:38:00,61.3,43.1,0.00,East,92,0.0,0.0,51,0.00,,---,0.00,VWS V14.00,2013-08-04 15:38:00,
2013-08-04 09:40:00,61.3,42.0,0.00,South,185,0.0,0.0,49,0.00,,---,0.00,VWS V14.00,2013-08-04 15:40:00,
2013-08-04 09:41:00,61.3,42.0,0.00,South,181,0.0,0.0,49,0.00,,---,0.00,VWS V14.00,2013-08-04 15:41:00,
2013-08-04 09:43:00,61.7,42.9,0.00,South,185,0.0,0.0,50,0.00,,---,0.00,VWS V14.00,2013-08-04 15:43:00,
2013-08-04 09:45:00,61.9,42.0,0.00,South,185,0.0,0.0,48,0.00,,---,0.00,VWS V14.00,2013-08-04 15:45:00,
2013-08-04 09:46:00,61.9,42.5,0.00,South,183,0.0,0.0,49,0.00,,---,0.00,VWS V14.00,2013-08-04 15:46:00,
2013-08-04 09:48:00,62.2,43.4,0.00,ESE,108,0.0,0.0,50,0.00,,---,0.00,VWS V14.00,2013-08-04 15:48:00,
2013-08-04 09:49:00,62.2,43.4,0.00,ESE,106,0.0,0.0,50,0.00,,---,0.00,VWS V14.00,2013-08-04 15:49:00,
2013-08-04 09:50:00,62.4,43.5,0.00,ESE,122,3.6,3.6,50,0.00,,---,0.00,VWS V14.00,2013-08-04 15:50:00,
2013-08-04 09:52:00,62.6,43.2,0.00,ESE,121,2.7,4.0,49,0.00,,---,0.00,VWS V14.00,2013-08-04 15:52:00,
2013-08-04 09:53:00,62.8,42.8,0.00,SE,129,0.0,2.2,48,0.00,,---,0.00,VWS V14.00,2013-08-04 15:53:00,
2013-08-04 09:54:00,62.8,42.8,0.00,SE,128,0.0,2.2,48,0.00,,---,0.00,VWS V14.00,2013-08-04 15:54:00,
2013-08-04 09:55:00,63.0,43.0,0.00,SE,129,0.0,0.0,48,0.00,,---,0.00,VWS V14.00,2013-08-04 15:55:00,
2013-08-04 09:57:00,63.1,42.6,0.00,South,181,0.0,0.0,47,0.00,,---,0.00,VWS V14.00,2013-08-04 15:57:00,
2013-08-04 09:58:00,63.3,43.3,0.00,South,184,0.0,0.0,48,0.00,,---,0.00,VWS V14.00,2013-08-04 15:58:00,
2013-08-04 09:59:00,63.3,43.3,0.00,SW,216,0.0,0.0,48,0.00,,---,0.00,VWS V14.00,2013-08-04 15:59:00,
2013-08-04 10:00:00,63.5,43.5,0.00,SW,216,0.0,0.0,48,0.00,,---,0.00,VWS V14.00,2013-08-04 16:00:00,
2013-08-04 10:02:00,63.7,43.1,0.00,SSW,213,0.0,0.0,47,0.00,,---,0.00,VWS V14.00,2013-08-04 16:02:00,
2013-08-04 10:04:00,63.9,43.8,0.00,SW,216,0.0,0.0,48,0.00,,---,0.00,VWS V14.00,2013-08-04 16:04:00,
2013-08-04 10:06:00,64.0,44.0,0.00,SE,138,2.7,4.0,48,0.00,,---,0.00,VWS V14.00,2013-08-04 16:06:00,
2013-08-04 10:07:00,64.2,43.6,0.00,SE,138,0.0,0.0,47,0.00,,---,0.00,VWS V14.00,2013-08-04 16:07:00,
2013-08-04 10:09:00,64.4,44.3,0.00,SE,138,0.0,0.0,48,0.00,,---,0.00,VWS V14.00,2013-08-04 16:09:00,
2013-08-04 10:11:00,64.6,43.9,0.00,East,86,2.7,3.6,47,0.00,,---,0.00,VWS V14.00,2013-08-04 16:11:00,
2013-08-04 10:12:00,64.8,44.1,0.00,East,85,0.0,0.0,47,0.00,,---,0.00,VWS V14.00,2013-08-04 16:12:00,
2013-08-04 10:14:00,64.8,43.0,0.00,East,98,0.0,2.7,45,0.00,,---,0.00,VWS V14.00,2013-08-04 16:14:00,
2013-08-04 10:15:00,64.9,43.7,0.00,East,98,0.0,0.0,46,0.00,,---,0.00,VWS V14.00,2013-08-04 16:15:00,
2013-08-04 10:16:00,65.1,43.8,0.00,SE,136,2.2,3.6,46,0.00,,---,0.00,VWS V14.00,2013-08-04 16:16:00,
2013-08-04 10:18:00,65.1,43.8,0.00,ESE,119,2.7,2.7,46,0.00,,---,0.00,VWS V14.00,2013-08-04 16:18:00,
2013-08-04 10:19:00,65.3,44.0,0.00,ENE,75,0.0,3.1,46,0.00,,---,0.00,VWS V14.00,2013-08-04 16:19:00,
2013-08-04 10:20:00,65.3,44.0,0.00,East,79,0.0,2.7,46,0.00,,---,0.00,VWS V14.00,2013-08-04 16:20:00,
2013-08-04 10:21:00,65.5,44.2,0.00,NE,51,0.0,0.0,46,0.00,,---,0.00,VWS V14.00,2013-08-04 16:21:00,
2013-08-04 10:23:00,65.5,44.2,0.00,ENE,57,0.0,0.0,46,0.00,,---,0.00,VWS V14.00,2013-08-04 16:23:00,
2013-08-04 10:24:00,65.7,44.3,0.00,ESE,111,4.9,4.9,46,0.00,,---,0.00,VWS V14.00,2013-08-04 16:24:00,
2013-08-04 10:25:00,65.8,43.9,0.00,SE,139,0.0,3.1,45,0.00,,---,0.00,VWS V14.00,2013-08-04 16:25:00,
2013-08-04 10:27:00,65.8,43.9,0.00,SSE,149,0.0,0.0,45,0.00,,---,0.00,VWS V14.00,2013-08-04 16:27:00,
2013-08-04 10:28:00,66.0,44.1,0.00,NW,305,0.0,0.0,45,0.00,,---,0.00,VWS V14.00,2013-08-04 16:28:00,
2013-08-04 10:29:00,66.0,44.1,0.00,NW,307,0.0,0.0,45,0.00,,---,0.00,VWS V14.00,2013-08-04 16:29:00,
2013-08-04 10:30:00,66.0,43.5,0.00,NW,306,0.0,0.0,44,0.00,,---,0.00,VWS V14.00,2013-08-04 16:30:00,
2013-08-04 10:31:00,66.2,43.7,0.00,WNW,294,0.0,0.0,44,0.00,,---,0.00,VWS V14.00,2013-08-04 16:31:00,
2013-08-04 10:32:00,66.2,44.2,0.00,WNW,294,0.0,0.0,45,0.00,,---,0.00,VWS V14.00,2013-08-04 16:32:00,
2013-08-04 10:33:00,66.4,44.4,0.00,WNW,295,0.0,0.0,45,0.00,,---,0.00,VWS V14.00,2013-08-04 16:33:00,
2013-08-04 10:34:00,66.4,44.4,0.00,SSE,167,0.0,0.0,45,0.00,,---,0.00,VWS V14.00,2013-08-04 16:34:00,
2013-08-04 10:35:00,66.4,43.8,0.00,SSE,154,0.0,0.0,44,0.00,,---,0.00,VWS V14.00,2013-08-04 16:35:00,
2013-08-04 10:36:00,66.6,44.6,0.00,ESE,122,2.2,2.7,45,0.00,,---,0.00,VWS V14.00,2013-08-04 16:36:00,
2013-08-04 10:37:00,66.6,44.6,0.00,ESE,119,2.7,2.7,45,0.00,,---,0.00,VWS V14.00,2013-08-04 16:37:00,
2013-08-04 10:38:00,66.6,44.6,0.00,ESE,122,2.7,3.1,45,0.00,,---,0.00,VWS V14.00,2013-08-04 16:38:00,
2013-08-04 10:39:00,66.7,44.2,0.00,East,91,0.0,0.0,44,0.00,,---,0.00,VWS V14.00,2013-08-04 16:39:00,
2013-08-04 10:40:00,66.7,44.2,0.00,East,91,0.0,0.0,44,0.00,,---,0.00,VWS V14.00,2013-08-04 16:40:00,
2013-08-04 10:41:00,66.9,44.9,0.00,East,98,0.0,0.0,45,0.00,,---,0.00,VWS V14.00,2013-08-04 16:41:00,
2013-08-04 10:42:00,66.9,44.3,0.00,East,99,0.0,0.0,44,0.00,,---,0.00,VWS V14.00,2013-08-04 16:42:00,
2013-08-04 10:43:00,67.1,44.5,0.00,East,99,0.0,0.0,44,0.00,,---,0.00,VWS V14.00,2013-08-04 16:43:00,
2013-08-04 10:44:00,67.1,44.5,0.00,ESE,105,0.0,0.0,44,0.00,,---,0.00,VWS V14.00,2013-08-04 16:44:00,
2013-08-04 10:45:00,67.1,44.5,0.00,ESE,105,2.7,2.7,44,0.00,,---,0.00,VWS V14.00,2013-08-04 16:45:00,
2013-08-04 10:47:00,67.3,44.7,0.00,SE,126,2.2,3.1,44,0.00,,---,0.00,VWS V14.00,2013-08-04 16:47:00,
2013-08-04 10:48:00,67.5,44.2,0.00,SE,126,0.0,0.0,43,0.00,,---,0.00,VWS V14.00,2013-08-04 16:48:00,
2013-08-04 10:49:00,67.5,44.2,0.00,ESE,112,2.7,4.0,43,0.00,,---,0.00,VWS V14.00,2013-08-04 16:49:00,
2013-08-04 10:50:00,67.5,44.2,0.00,ESE,112,0.0,4.0,43,0.00,,---,0.00,VWS V14.00,2013-08-04 16:50:00,
2013-08-04 10:52:00,67.6,44.4,0.00,SE,135,2.7,6.3,43,0.00,,---,0.00,VWS V14.00,2013-08-04 16:52:00,
2013-08-04 10:53:00,67.8,44.5,0.00,SE,131,2.7,4.0,43,0.00,,---,0.00,VWS V14.00,2013-08-04 16:53:00,
2013-08-04 10:55:00,67.8,44.5,0.00,East,100,4.0,4.0,43,0.00,,---,0.00,VWS V14.00,2013-08-04 16:55:00,
2013-08-04 10:57:00,68.0,44.7,0.00,SSW,209,0.0,3.6,43,0.00,,---,0.00,VWS V14.00,2013-08-04 16:57:00,
2013-08-04 10:58:00,68.2,43.6,0.00,SW,214,0.0,0.0,41,0.00,,---,0.00,VWS V14.00,2013-08-04 16:58:00,
2013-08-04 11:00:00,68.2,43.6,0.00,SSW,213,0.0,0.0,41,0.00,,---,0.00,VWS V14.00,2013-08-04 17:00:00,
2013-08-04 11:02:00,68.2,43.0,0.00,SW,214,0.0,0.0,40,0.00,,---,0.00,VWS V14.00,2013-08-04 17:02:00,
2013-08-04 11:04:00,68.4,43.1,0.00,SSW,208,0.0,0.0,40,0.00,,---,0.00,VWS V14.00,2013-08-04 17:04:00,
2013-08-04 11:05:00,68.4,43.1,0.00,SW,214,0.0,0.0,40,0.00,,---,0.00,VWS V14.00,2013-08-04 17:05:00,
2013-08-04 11:07:00,68.5,42.0,0.00,SW,219,0.0,0.0,38,0.00,,---,0.00,VWS V14.00,2013-08-04 17:07:00,
2013-08-04 11:08:00,68.5,42.0,0.00,SW,216,0.0,0.0,38,0.00,,---,0.00,VWS V14.00,2013-08-04 17:08:00,
2013-08-04 11:09:00,68.5,42.6,0.00,SW,219,0.0,0.0,39,0.00,,---,0.00,VWS V14.00,2013-08-04 17:09:00,
2013-08-04 11:10:00,68.5,42.6,0.00,SW,217,0.0,0.0,39,0.00,,---,0.00,VWS V14.00,2013-08-04 17:10:00,
2013-08-04 11:13:00,68.7,43.5,0.00,SW,219,0.0,0.0,40,0.00,,---,0.00,VWS V14.00,2013-08-04 17:13:00,
2013-08-04 11:14:00,68.7,42.8,0.00,SW,219,0.0,0.0,39,0.00,,---,0.00,VWS V14.00,2013-08-04 17:14:00,
2013-08-04 11:15:00,68.7,42.1,0.00,SW,220,0.0,0.0,38,0.00,,---,0.00,VWS V14.00,2013-08-04 17:15:00,
2013-08-04 11:18:00,68.9,42.3,0.00,South,187,0.0,0.0,38,0.00,,---,0.00,VWS V14.00,2013-08-04 17:18:00,
2013-08-04 11:19:00,69.1,43.1,0.00,WSW,248,0.0,0.0,39,0.00,,---,0.00,VWS V14.00,2013-08-04 17:19:00,
2013-08-04 11:20:00,69.1,43.1,0.00,WSW,250,0.0,0.0,39,0.00,,---,0.00,VWS V14.00,2013-08-04 17:20:00,
2013-08-04 11:23:00,69.1,42.4,0.00,WSW,249,0.0,0.0,38,0.00,,---,0.00,VWS V14.00,2013-08-04 17:23:00,
2013-08-04 11:24:00,69.1,42.4,0.00,WSW,250,0.0,0.0,38,0.00,,---,0.00,VWS V14.00,2013-08-04 17:24:00,
2013-08-04 11:25:00,69.1,42.4,0.00,WSW,250,0.0,0.0,38,0.00,,---,0.00,VWS V14.00,2013-08-04 17:25:00,
2013-08-04 11:26:00,69.1,42.4,0.00,WSW,250,0.0,0.0,38,0.00,,---,0.00,VWS V14.00,2013-08-04 17:26:00,
2013-08-04 11:28:00,69.1,43.1,0.00,WSW,250,0.0,0.0,39,0.00,,---,0.00,VWS V14.00,2013-08-04 17:28:00,
2013-08-04 11:29:00,69.1,43.8,0.00,WSW,250,0.0,0.0,40,0.00,,---,0.00,VWS V14.00,2013-08-04 17:29:00,
2013-08-04 11:30:00,69.1,43.8,0.00,SW,235,0.0,0.0,40,0.00,,---,0.00,VWS V14.00,2013-08-04 17:30:00,
2013-08-04 11:31:00,69.1,42.4,0.00,SW,231,0.0,0.0,38,0.00,,---,0.00,VWS V14.00,2013-08-04 17:31:00,
2013-08-04 11:33:00,68.9,41.6,0.00,SW,231,0.0,0.0,37,0.00,,---,0.00,VWS V14.00,2013-08-04 17:33:00,
2013-08-04 11:34:00,68.9,41.6,0.00,SW,231,0.0,0.0,37,0.00,,---,0.00,VWS V14.00,2013-08-04 17:34:00,
2013-08-04 11:35:00,68.9,42.3,0.00,SW,231,0.0,0.0,38,0.00,,---,0.00,VWS V14.00,2013-08-04 17:35:00,
2013-08-04 11:36:00,68.9,42.3,0.00,SW,231,0.0,0.0,38,0.00,,---,0.00,VWS V14.00,2013-08-04 17:36:00,
2013-08-04 11:38:00,68.9,43.0,0.00,SW,231,0.0,0.0,39,0.00,,---,0.00,VWS V14.00,2013-08-04 17:38:00,
2013-08-04 11:39:00,68.9,43.6,0.00,SW,231,0.0,0.0,40,0.00,,---,0.00,VWS V14.00,2013-08-04 17:39:00,
2013-08-04 11:41:00,68.9,44.2,0.00,SW,231,0.0,0.0,41,0.00,,---,0.00,VWS V14.00,2013-08-04 17:41:00,
2013-08-04 11:43:00,68.9,45.5,0.00,SW,231,0.0,0.0,43,0.00,,---,0.00,VWS V14.00,2013-08-04 17:43:00,
2013-08-04 11:45:00,68.9,45.5,0.00,SW,231,0.0,0.0,43,0.00,,---,0.00,VWS V14.00,2013-08-04 17:45:00,
2013-08-04 11:46:00,68.7,45.3,0.00,SW,231,0.0,0.0,43,0.00,,---,0.00,VWS V14.00,2013-08-04 17:46:00,
2013-08-04 11:48:00,68.7,44.7,0.00,SW,230,0.0,0.0,42,0.00,,---,0.00,VWS V14.00,2013-08-04 17:48:00,
2013-08-04 11:50:00,68.7,45.3,0.00,SW,231,0.0,0.0,43,0.00,,---,0.00,VWS V14.00,2013-08-04 17:50:00,
2013-08-04 11:51:00,68.7,45.3,0.00,SW,231,0.0,0.0,43,0.00,,---,0.00,VWS V14.00,2013-08-04 17:51:00,
2013-08-04 11:52:00,68.7,45.3,0.00,SW,231,0.0,0.0,43,0.00,,---,0.00,VWS V14.00,2013-08-04 17:52:00,
2013-08-04 11:53:00,68.7,45.3,0.00,SW,232,0.0,0.0,43,0.00,,---,0.00,VWS V14.00,2013-08-04 17:53:00,
2013-08-04 11:55:00,68.7,44.7,0.00,SW,229,0.0,0.0,42,0.00,,---,0.00,VWS V14.00,2013-08-04 17:55:00,
2013-08-04 11:56:00,68.7,44.7,0.00,WSW,237,0.0,0.0,42,0.00,,---,0.00,VWS V14.00,2013-08-04 17:56:00,
2013-08-04 11:57:00,68.7,44.7,0.00,WSW,238,0.0,0.0,42,0.00,,---,0.00,VWS V14.00,2013-08-04 17:57:00,
2013-08-04 11:58:00,68.7,44.7,0.00,WSW,237,0.0,0.0,42,0.00,,---,0.00,VWS V14.00,2013-08-04 17:58:00,
2013-08-04 12:00:00,68.7,44.1,0.00,WSW,238,0.0,0.0,41,0.00,,---,0.00,VWS V14.00,2013-08-04 18:00:00,
2013-08-04 12:02:00,68.7,44.1,0.00,West,273,0.0,0.0,41,0.00,,---,0.00,VWS V14.00,2013-08-04 18:02:00,
2013-08-04 12:03:00,68.7,43.5,0.00,West,279,0.0,0.0,40,0.00,,---,0.00,VWS V14.00,2013-08-04 18:03:00,
2013-08-04 12:05:00,68.7,43.5,0.00,West,281,0.0,0.0,40,0.00,,---,0.00,VWS V14.00,2013-08-04 18:05:00,
2013-08-04 12:07:00,68.7,43.5,0.00,West,281,0.0,0.0,40,0.00,,---,0.00,VWS V14.00,2013-08-04 18:07:00,
2013-08-04 12:08:00,68.7,44.1,0.00,West,281,0.0,0.0,41,0.00,,---,0.00,VWS V14.00,2013-08-04 18:08:00,
2013-08-04 12:11:00,68.7,44.1,0.00,West,281,0.0,0.0,41,0.00,,---,0.00,VWS V14.00,2013-08-04 18:11:00,
2013-08-04 12:12:00,68.7,44.7,0.00,West,281,0.0,0.0,42,0.00,,---,0.00,VWS V14.00,2013-08-04 18:12:00,
2013-08-04 12:13:00,68.7,44.7,0.00,West,279,0.0,0.0,42,0.00,,---,0.00,VWS V14.00,2013-08-04 18:13:00,
2013-08-04 12:14:00,68.7,43.5,0.00,West,280,0.0,0.0,40,0.00,,---,0.00,VWS V14.00,2013-08-04 18:14:00,
2013-08-04 12:16:00,68.7,43.5,0.00,SW,227,0.0,0.0,40,0.00,,---,0.00,VWS V14.00,2013-08-04 18:16:00,
2013-08-04 12:17:00,68.7,42.1,0.00,SW,235,0.0,0.0,38,0.00,,---,0.00,VWS V14.00,2013-08-04 18:17:00,
2013-08-04 12:18:00,68.7,42.1,0.00,SW,235,0.0,0.0,38,0.00,,---,0.00,VWS V14.00,2013-08-04 18:18:00,
2013-08-04 12:19:00,68.7,42.8,0.00,WSW,240,0.0,0.0,39,0.00,,---,0.00,VWS V14.00,2013-08-04 18:19:00,
2013-08-04 12:21:00,68.7,42.8,0.00,SW,235,0.0,0.0,39,0.00,,---,0.00,VWS V14.00,2013-08-04 18:21:00,
2013-08-04 12:22:00,68.7,43.5,0.00,WSW,240,0.0,0.0,40,0.00,,---,0.00,VWS V14.00,2013-08-04 18:22:00,
2013-08-04 12:23:00,68.7,43.5,0.00,SW,235,0.0,0.0,40,0.00,,---,0.00,VWS V14.00,2013-08-04 18:23:00,
2013-08-04 12:24:00,68.7,44.1,0.00,WSW,240,0.0,0.0,41,0.00,,---,0.00,VWS V14.00,2013-08-04 18:24:00,
2013-08-04 12:26:00,68.7,44.1,0.00,WSW,238,0.0,0.0,41,0.00,,---,0.00,VWS V14.00,2013-08-04 18:26:00,
2013-08-04 12:27:00,68.7,44.1,0.00,WSW,240,0.0,0.0,41,0.00,,---,0.00,VWS V14.00,2013-08-04 18:27:00,
2013-08-04 12:28:00,68.7,44.7,0.00,WSW,240,0.0,0.0,42,0.00,,---,0.00,VWS V14.00,2013-08-04 18:28:00,
2013-08-04 12:29:00,68.7,44.1,0.00,WSW,240,0.0,0.0,41,0.00,,---,0.00,VWS V14.00,2013-08-04 18:29:00,
2013-08-04 12:31:00,68.7,44.1,0.00,WSW,238,0.0,0.0,41,0.00,,---,0.00,VWS V14.00,2013-08-04 18:31:00,
2013-08-04 12:32:00,68.7,44.1,0.00,WSW,240,0.0,0.0,41,0.00,,---,0.00,VWS V14.00,2013-08-04 18:32:00,
2013-08-04 12:33:00,68.7,44.7,0.00,WSW,240,0.0,0.0,42,0.00,,---,0.00,VWS V14.00,2013-08-04 18:33:00,
2013-08-04 12:34:00,68.7,44.7,0.00,WSW,240,0.0,0.0,42,0.00,,---,0.00,VWS V14.00,2013-08-04 18:34:00,
2013-08-04 12:36:00,68.7,44.1,0.00,SW,225,0.0,0.0,41,0.00,,---,0.00,VWS V14.00,2013-08-04 18:36:00,
2013-08-04 12:38:00,68.7,44.1,0.00,SW,225,0.0,0.0,41,0.00,,---,0.00,VWS V14.00,2013-08-04 18:38:00,
2013-08-04 12:39:00,68.7,44.7,0.00,SW,224,0.0,0.0,42,0.00,,---,0.00,VWS V14.00,2013-08-04 18:39:00,
2013-08-04 12:42:00,68.7,44.7,0.00,SW,224,0.0,0.0,42,0.00,,---,0.00,VWS V14.00,2013-08-04 18:42:00,
2013-08-04 12:43:00,68.7,44.7,0.00,SW,225,0.0,0.0,42,0.00,,---,0.00,VWS V14.00,2013-08-04 18:43:00,
2013-08-04 12:44:00,68.7,44.7,0.00,SW,224,0.0,0.0,42,0.00,,---,0.00,VWS V14.00,2013-08-04 18:44:00,
2013-08-04 12:47:00,68.7,44.1,0.00,SW,229,0.0,0.0,41,0.00,,---,0.00,VWS V14.00,2013-08-04 18:47:00,
2013-08-04 12:48:00,68.7,44.1,0.00,SW,227,0.0,0.0,41,0.00,,---,0.00,VWS V14.00,2013-08-04 18:48:00,
2013-08-04 12:49:00,68.7,43.5,0.00,SW,229,0.0,0.0,40,0.00,,---,0.00,VWS V14.00,2013-08-04 18:49:00,
2013-08-04 12:52:00,68.7,43.5,0.00,SW,230,0.0,0.0,40,0.00,,---,0.00,VWS V14.00,2013-08-04 18:52:00,
2013-08-04 12:53:00,68.7,43.5,0.00,SW,230,0.0,0.0,40,0.00,,---,0.00,VWS V14.00,2013-08-04 18:53:00,
2013-08-04 12:54:00,68.7,43.5,0.00,SW,229,0.0,0.0,40,0.00,,---,0.00,VWS V14.00,2013-08-04 18:54:00,
2013-08-04 12:55:00,68.7,42.8,0.00,SW,229,0.0,0.0,39,0.00,,---,0.00,VWS V14.00,2013-08-04 18:55:00,
2013-08-04 12:57:00,68.5,43.3,0.00,SW,228,0.0,0.0,40,0.00,,---,0.00,VWS V14.00,2013-08-04 18:57:00,
2013-08-04 12:58:00,68.5,43.3,0.00,SW,224,0.0,0.0,40,0.00,,---,0.00,VWS V14.00,2013-08-04 18:58:00,
2013-08-04 12:59:00,68.5,43.3,0.00,SW,224,0.0,0.0,40,0.00,,---,0.00,VWS V14.00,2013-08-04 18:59:00,
2013-08-04 13:00:00,68.5,43.3,0.00,SW,225,0.0,0.0,40,0.00,,---,0.00,VWS V14.00,2013-08-04 19:00:00,
2013-08-04 13:03:00,68.4,43.1,0.00,SW,228,0.0,0.0,40,0.00,,---,0.00,VWS V14.00,2013-08-04 19:03:00,
2013-08-04 13:04:00,68.4,43.1,0.00,SW,228,0.0,0.0,40,0.00,,---,0.00,VWS V14.00,2013-08-04 19:04:00,
2013-08-04 13:06:00,68.4,43.1,0.00,SW,227,0.0,0.0,40,0.00,,---,0.00,VWS V14.00,2013-08-04 19:06:00,
2013-08-04 13:08:00,68.2,42.3,0.00,SW,232,0.0,0.0,39,0.00,,---,0.00,VWS V14.00,2013-08-04 19:08:00,
2013-08-04 13:09:00,68.2,42.3,0.00,SW,232,0.0,0.0,39,0.00,,---,0.00,VWS V14.00,2013-08-04 19:09:00,
2013-08-04 13:11:00,68.2,42.3,0.00,SW,233,0.0,2.2,39,0.00,,---,0.00,VWS V14.00,2013-08-04 19:11:00,
2013-08-04 13:13:00,68.0,42.1,0.00,SW,226,0.0,0.0,39,0.00,,---,0.00,VWS V14.00,2013-08-04 19:13:00,
2013-08-04 13:14:00,68.0,42.1,0.00,ESE,109,0.0,0.0,39,0.00,,---,0.00,VWS V14.00,2013-08-04 19:14:00,
2013-08-04 13:15:00,68.0,42.1,0.00,ESE,109,0.0,0.0,39,0.00,,---,0.00,VWS V14.00,2013-08-04 19:15:00,
2013-08-04 13:16:00,68.0,42.8,0.00,SW,228,0.0,2.2,40,0.00,,---,0.00,VWS V14.00,2013-08-04 19:16:00,
2013-08-04 13:18:00,68.0,42.8,0.00,WNW,284,0.0,2.2,40,0.00,,---,0.00,VWS V14.00,2013-08-04 19:18:00,
2013-08-04 13:19:00,68.0,43.5,0.00,WSW,252,0.0,0.0,41,0.00,,---,0.00,VWS V14.00,2013-08-04 19:19:00,
2013-08-04 13:20:00,68.0,42.8,0.00,WSW,249,0.0,0.0,40,0.00,,---,0.00,VWS V14.00,2013-08-04 19:20:00,
2013-08-04 13:22:00,68.0,43.5,0.00,SSW,198,0.0,0.0,41,0.00,,---,0.00,VWS V14.00,2013-08-04 19:22:00,
2013-08-04 13:24:00,68.0,43.5,0.00,SSW,200,0.0,0.0,41,0.00,,---,0.00,VWS V14.00,2013-08-04 19:24:00,
2013-08-04 13:25:00,68.0,43.5,0.00,SSE,154,0.0,0.0,41,0.00,,---,0.00,VWS V14.00,2013-08-04 19:25:00,
2013-08-04 13:27:00,68.0,43.5,0.00,SSE,154,0.0,0.0,41,0.00,,---,0.00,VWS V14.00,2013-08-04 19:27:00,
2013-08-04 13:29:00,67.8,43.9,0.00,South,174,0.0,0.0,42,0.00,,---,0.00,VWS V14.00,2013-08-04 19:29:00,
2013-08-04 13:30:00,67.8,43.9,0.00,South,175,0.0,0.0,42,0.00,,---,0.00,VWS V14.00,2013-08-04 19:30:00,
2013-08-04 13:32:00,67.8,43.9,0.00,SE,135,3.1,3.1,42,0.00,,---,0.00,VWS V14.00,2013-08-04 19:32:00,
2013-08-04 13:34:00,67.8,44.5,0.00,SE,135,0.0,0.0,43,0.00,,---,0.00,VWS V14.00,2013-08-04 19:34:00,
2013-08-04 13:35:00,67.8,44.5,0.00,SE,131,0.0,0.0,43,0.00,,---,0.00,VWS V14.00,2013-08-04 19:35:00,
2013-08-04 13:36:00,67.8,44.5,0.00,SE,129,0.0,0.0,43,0.00,,---,0.00,VWS V14.00,2013-08-04 19:36:00,
2013-08-04 13:37:00,67.8,44.5,0.00,ESE,116,0.0,0.0,43,0.00,,---,0.00,VWS V14.00,2013-08-04 19:37:00,
2013-08-04 13:39:00,67.8,45.1,0.00,SE,134,3.1,3.1,44,0.00,,---,0.00,VWS V14.00,2013-08-04 19:39:00,
2013-08-04 13:40:00,67.8,45.1,0.00,ESE,122,3.1,3.1,44,0.00,,---,0.00,VWS V14.00,2013-08-04 19:40:00,
2013-08-04 13:41:00,67.8,45.1,0.00,SE,125,0.0,3.1,44,0.00,,---,0.00,VWS V14.00,2013-08-04 19:41:00,
2013-08-04 13:42:00,67.8,45.7,0.00,SW,225,0.0,0.0,45,0.00,,---,0.00,VWS V14.00,2013-08-04 19:42:00,
2013-08-04 13:44:00,67.8,45.7,0.00,SSE,148,2.2,3.6,45,0.00,,---,0.00,VWS V14.00,2013-08-04 19:44:00,
2013-08-04 13:45:00,68.0,45.3,0.00,SE,144,3.6,3.6,44,0.00,,---,0.00,VWS V14.00,2013-08-04 19:45:00,
2013-08-04 13:46:00,68.0,45.3,0.00,SE,135,3.1,4.0,44,0.00,,---,0.00,VWS V14.00,2013-08-04 19:46:00,
2013-08-04 13:48:00,68.0,44.7,0.00,East,91,3.6,4.0,43,0.00,,---,0.00,VWS V14.00,2013-08-04 19:48:00,
2013-08-04 13:49:00,68.0,44.1,0.00,ESE,109,3.1,3.1,42,0.00,,---,0.00,VWS V14.00,2013-08-04 19:49:00,
2013-08-04 13:50:00,68.2,44.9,0.00,SE,124,2.7,3.1,43,0.00,,---,0.00,VWS V14.00,2013-08-04 19:50:00,
2013-08-04 13:51:00,68.2,44.9,0.00,SE,124,0.0,3.1,43,0.00,,---,0.00,VWS V14.00,2013-08-04 19:51:00,
2013-08-04 13:53:00,68.2,44.2,0.00,ESE,118,0.0,2.2,42,0.00,,---,0.00,VWS V14.00,2013-08-04 19:53:00,
2013-08-04 13:54:00,68.2,44.2,0.00,ESE,115,0.0,3.1,42,0.00,,---,0.00,VWS V14.00,2013-08-04 19:54:00,
2013-08-04 13:55:00,68.2,44.2,0.00,ESE,119,0.0,0.0,42,0.00,,---,0.00,VWS V14.00,2013-08-04 19:55:00,
2013-08-04 13:58:00,68.2,44.2,0.00,South,179,0.0,0.0,42,0.00,,---,0.00,VWS V14.00,2013-08-04 19:58:00,
2013-08-04 13:59:00,68.4,44.4,0.00,ESE,111,2.7,3.1,42,0.00,,---,0.00,VWS V14.00,2013-08-04 19:59:00,
2013-08-04 14:00:00,68.4,44.4,0.00,ESE,112,0.0,0.0,42,0.00,,---,0.00,VWS V14.00,2013-08-04 20:00:00,
2013-08-04 14:03:00,68.4,44.4,0.00,ESE,112,0.0,0.0,42,0.00,,---,0.00,VWS V14.00,2013-08-04 20:03:00,
2013-08-04 14:04:00,68.4,44.4,0.00,South,177,0.0,0.0,42,0.00,,---,0.00,VWS V14.00,2013-08-04 20:04:00,
2013-08-04 14:06:00,68.4,44.4,0.00,South,183,0.0,0.0,42,0.00,,---,0.00,VWS V14.00,2013-08-04 20:06:00,
2013-08-04 14:08:00,68.5,43.9,0.00,South,183,0.0,0.0,41,0.00,,---,0.00,VWS V14.00,2013-08-04 20:08:00,
2013-08-04 14:09:00,68.5,43.9,0.00,South,183,0.0,0.0,41,0.00,,---,0.00,VWS V14.00,2013-08-04 20:09:00,
2013-08-04 14:10:00,68.5,43.9,0.00,South,186,0.0,0.0,41,0.00,,---,0.00,VWS V14.00,2013-08-04 20:10:00,
2013-08-04 14:11:00,68.5,44.6,0.00,South,186,0.0,0.0,42,0.00,,---,0.00,VWS V14.00,2013-08-04 20:11:00,
2013-08-04 14:13:00,68.5,43.9,0.00,South,186,0.0,0.0,41,0.00,,---,0.00,VWS V14.00,2013-08-04 20:13:00,
2013-08-04 14:14:00,68.5,43.9,0.00,SW,220,0.0,0.0,41,0.00,,---,0.00,VWS V14.00,2013-08-04 20:14:00,
2013-08-04 14:15:00,68.5,43.9,0.00,SW,227,0.0,0.0,41,0.00,,---,0.00,VWS V14.00,2013-08-04 20:15:00,
2013-08-04 14:16:00,68.5,44.6,0.00,SW,233,0.0,0.0,42,0.00,,---,0.00,VWS V14.00,2013-08-04 20:16:00,
2013-08-04 14:18:00,68.5,43.3,0.00,South,169,3.1,3.1,40,0.00,,---,0.00,VWS V14.00,2013-08-04 20:18:00,
2013-08-04 14:19:00,68.5,43.3,0.00,SSW,192,0.0,0.0,40,0.00,,---,0.00,VWS V14.00,2013-08-04 20:19:00,
2013-08-04 14:20:00,68.5,43.3,0.00,SSW,193,0.0,0.0,40,0.00,,---,0.00,VWS V14.00,2013-08-04 20:20:00,
2013-08-04 14:21:00,68.5,43.3,0.00,SE,141,0.0,0.0,40,0.00,,---,0.00,VWS V14.00,2013-08-04 20:21:00,
2013-08-04 14:23:00,68.5,43.3,0.00,SSW,206,0.0,0.0,40,0.00,,---,0.00,VWS V14.00,2013-08-04 20:23:00,
2013-08-04 14:24:00,68.5,43.3,0.00,SSE,164,4.9,4.9,40,0.00,,---,0.00,VWS V14.00,2013-08-04 20:24:00,
2013-08-04 14:25:00,68.5,43.3,0.00,South,180,0.0,0.0,40,0.00,,---,0.00,VWS V14.00,2013-08-04 20:25:00,
2013-08-04 14:27:00,68.5,42.6,0.00,South,173,0.0,0.0,39,0.00,,---,0.00,VWS V14.00,2013-08-04 20:27:00,
2013-08-04 14:28:00,68.5,42.6,0.00,South,173,0.0,0.0,39,0.00,,---,0.00,VWS V14.00,2013-08-04 20:28:00,
2013-08-04 14:29:00,68.5,42.6,0.00,South,173,0.0,0.0,39,0.00,,---,0.00,VWS V14.00,2013-08-04 20:29:00,
2013-08-04 14:30:00,68.5,42.6,0.00,South,177,0.0,0.0,39,0.00,,---,0.00,VWS V14.00,2013-08-04 20:30:00,
2013-08-04 14:32:00,68.4,42.5,0.00,South,177,0.0,0.0,39,0.00,,---,0.00,VWS V14.00,2013-08-04 20:32:00,
2013-08-04 14:33:00,68.4,42.5,0.00,WSW,240,0.0,0.0,39,0.00,,---,0.00,VWS V14.00,2013-08-04 20:33:00,
2013-08-04 14:34:00,68.4,42.5,0.00,WSW,241,0.0,0.0,39,0.00,,---,0.00,VWS V14.00,2013-08-04 20:34:00,
2013-08-04 14:35:00,68.4,42.5,0.00,WSW,242,0.0,0.0,39,0.00,,---,0.00,VWS V14.00,2013-08-04 20:35:00,
2013-08-04 14:37:00,68.4,42.5,0.00,WSW,241,0.0,0.0,39,0.00,,---,0.00,VWS V14.00,2013-08-04 20:37:00,
2013-08-04 14:38:00,68.2,42.3,0.00,SW,235,0.0,0.0,39,0.00,,---,0.00,VWS V14.00,2013-08-04 20:38:00,
2013-08-04 14:39:00,68.2,43.0,0.00,WSW,242,0.0,0.0,40,0.00,,---,0.00,VWS V14.00,2013-08-04 20:39:00,
2013-08-04 14:40:00,68.2,42.3,0.00,SW,235,0.0,0.0,39,0.00,,---,0.00,VWS V14.00,2013-08-04 20:40:00,
2013-08-04 14:42:00,68.2,42.3,0.00,WSW,242,0.0,0.0,39,0.00,,---,0.00,VWS V14.00,2013-08-04 20:42:00,
2013-08-04 14:43:00,68.2,42.3,0.00,WSW,241,0.0,0.0,39,0.00,,---,0.00,VWS V14.00,2013-08-04 20:43:00,
2013-08-04 14:44:00,68.0,42.8,0.00,WSW,241,0.0,0.0,40,0.00,,---,0.00,VWS V14.00,2013-08-04 20:44:00,
2013-08-04 14:45:00,68.0,42.8,0.00,WSW,242,0.0,0.0,40,0.00,,---,0.00,VWS V14.00,2013-08-04 20:45:00,
2013-08-04 14:47:00,68.0,43.5,0.00,WSW,242,0.0,0.0,41,0.00,,---,0.00,VWS V14.00,2013-08-04 20:47:00,
2013-08-04 14:48:00,68.0,44.1,0.00,WSW,240,0.0,0.0,42,0.00,,---,0.00,VWS V14.00,2013-08-04 20:48:00,
2013-08-04 14:49:00,68.0,44.1,0.00,WSW,242,0.0,0.0,42,0.00,,---,0.00,VWS V14.00,2013-08-04 20:49:00,
2013-08-04 14:50:00,68.0,44.1,0.00,WSW,240,0.0,0.0,42,0.00,,---,0.00,VWS V14.00,2013-08-04 20:50:00,
2013-08-04 14:51:00,68.0,44.1,0.00,WSW,240,0.0,0.0,42,0.00,,---,0.00,VWS V14.00,2013-08-04 20:51:00,
2013-08-04 14:52:00,67.8,43.3,0.00,South,185,2.2,3.1,41,0.00,,---,0.00,VWS V14.00,2013-08-04 20:52:00,
2013-08-04 14:53:00,67.8,43.3,0.00,South,176,2.7,3.1,41,0.00,,---,0.00,VWS V14.00,2013-08-04 20:53:00,
2013-08-04 14:55:00,67.8,43.3,0.00,South,175,2.7,5.4,41,0.00,,---,0.00,VWS V14.00,2013-08-04 20:55:00,
2013-08-04 14:56:00,67.6,43.1,0.00,SW,221,0.0,0.0,41,0.00,,---,0.00,VWS V14.00,2013-08-04 20:56:00,
2013-08-04 14:58:00,67.5,44.2,0.00,SSW,193,2.7,3.6,43,0.00,,---,0.00,VWS V14.00,2013-08-04 20:58:00,
2013-08-04 15:00:00,67.3,45.8,0.00,SW,214,0.0,6.3,46,0.00,,---,0.00,VWS V14.00,2013-08-04 21:00:00,
2013-08-04 15:01:00,67.1,45.1,0.00,WSW,248,2.2,2.2,45,0.00,,---,0.00,VWS V14.00,2013-08-04 21:01:00,
2013-08-04 15:03:00,66.7,46.5,0.00,WSW,246,3.1,4.0,48,0.00,,---,0.00,VWS V14.00,2013-08-04 21:03:00,
2013-08-04 15:05:00,66.7,47.5,0.00,WSW,239,2.2,3.1,50,0.00,,---,0.00,VWS V14.00,2013-08-04 21:05:00,
2013-08-04 15:06:00,66.6,47.4,0.00,WSW,238,0.0,0.0,50,0.00,,---,0.00,VWS V14.00,2013-08-04 21:06:00,
2013-08-04 15:08:00,66.6,46.3,0.00,WSW,256,0.0,3.1,48,0.00,,---,0.00,VWS V14.00,2013-08-04 21:08:00,
2013-08-04 15:10:00,66.4,46.7,0.00,SW,219,0.0,0.0,49,0.00,,---,0.00,VWS V14.00,2013-08-04 21:10:00,
2013-08-04 15:11:00,66.4,46.7,0.00,SW,220,0.0,0.0,49,0.00,,---,0.00,VWS V14.00,2013-08-04 21:11:00,
2013-08-04 15:13:00,66.4,46.7,0.00,SW,219,0.0,0.0,49,0.00,,---,0.00,VWS V14.00,2013-08-04 21:13:00,
2013-08-04 15:15:00,66.4,46.7,0.00,SW,219,0.0,0.0,49,0.00,,---,0.00,VWS V14.00,2013-08-04 21:15:00,
2013-08-04 15:16:00,66.4,46.7,0.00,SW,216,2.2,2.2,49,0.00,,---,0.00,VWS V14.00,2013-08-04 21:16:00,
2013-08-04 15:18:00,66.4,46.1,0.00,SW,222,0.0,0.0,48,0.00,,---,0.00,VWS V14.00,2013-08-04 21:18:00,
2013-08-04 15:20:00,66.4,46.1,0.00,WSW,244,0.0,0.0,48,0.00,,---,0.00,VWS V14.00,2013-08-04 21:20:00,
2013-08-04 15:21:00,66.4,46.1,0.00,WSW,244,0.0,0.0,48,0.00,,---,0.00,VWS V14.00,2013-08-04 21:21:00,
2013-08-04 15:23:00,66.4,45.6,0.00,WSW,240,0.0,0.0,47,0.00,,---,0.00,VWS V14.00,2013-08-04 21:23:00,
2013-08-04 15:25:00,66.2,45.4,0.00,WSW,240,0.0,0.0,47,0.00,,---,0.00,VWS V14.00,2013-08-04 21:25:00,
2013-08-04 15:26:00,66.2,46.0,0.00,WSW,241,0.0,0.0,48,0.00,,---,0.00,VWS V14.00,2013-08-04 21:26:00,
2013-08-04 15:27:00,66.2,45.4,0.00,WSW,258,0.0,2.7,47,0.00,,---,0.00,VWS V14.00,2013-08-04 21:27:00,
2013-08-04 15:29:00,66.2,44.8,0.00,WSW,242,0.0,2.2,46,0.00,,---,0.00,VWS V14.00,2013-08-04 21:29:00,
2013-08-04 15:30:00,66.2,44.8,0.00,West,269,0.0,4.0,46,0.00,,---,0.00,VWS V14.00,2013-08-04 21:30:00,
2013-08-04 15:31:00,66.2,44.8,0.00,SSW,212,2.2,2.2,46,0.00,,---,0.00,VWS V14.00,2013-08-04 21:31:00,
2013-08-04 15:32:00,66.0,44.7,0.00,SW,225,0.0,2.2,46,0.00,,---,0.00,VWS V14.00,2013-08-04 21:32:00,
2013-08-04 15:34:00,66.0,44.7,0.00,WSW,249,0.0,0.0,46,0.00,,---,0.00,VWS V14.00,2013-08-04 21:34:00,
2013-08-04 15:36:00,66.0,45.2,0.00,WSW,249,0.0,0.0,47,0.00,,---,0.00,VWS V14.00,2013-08-04 21:36:00,
2013-08-04 15:37:00,66.0,45.2,0.00,SW,214,0.0,0.0,47,0.00,,---,0.00,VWS V14.00,2013-08-04 21:37:00,
2013-08-04 15:39:00,66.0,45.2,0.00,SW,214,0.0,0.0,47,0.00,,---,0.00,VWS V14.00,2013-08-04 21:39:00,
2013-08-04 15:41:00,66.0,45.8,0.00,SW,219,0.0,2.2,48,0.00,,---,0.00,VWS V14.00,2013-08-04 21:41:00,
2013-08-04 15:42:00,65.8,45.1,0.00,SW,236,0.0,0.0,47,0.00,,---,0.00,VWS V14.00,2013-08-04 21:42:00,
2013-08-04 15:44:00,65.8,45.1,0.00,SW,224,0.0,0.0,47,0.00,,---,0.00,VWS V14.00,2013-08-04 21:44:00,
2013-08-04 15:46:00,65.8,45.1,0.00,SW,236,0.0,0.0,47,0.00,,---,0.00,VWS V14.00,2013-08-04 21:46:00,
2013-08-04 15:47:00,65.8,45.1,0.00,SW,235,0.0,0.0,47,0.00,,---,0.00,VWS V14.00,2013-08-04 21:47:00,
2013-08-04 15:49:00,65.8,45.1,0.00,SW,235,0.0,0.0,47,0.00,,---,0.00,VWS V14.00,2013-08-04 21:49:00,
2013-08-04 15:51:00,65.8,45.1,0.00,SW,233,0.0,0.0,47,0.00,,---,0.00,VWS V14.00,2013-08-04 21:51:00,
2013-08-04 15:52:00,65.8,45.1,0.00,SW,236,0.0,0.0,47,0.00,,---,0.00,VWS V14.00,2013-08-04 21:52:00,
2013-08-04 15:54:00,65.8,45.6,0.00,SW,235,0.0,0.0,48,0.00,,---,0.00,VWS V14.00,2013-08-04 21:54:00,
2013-08-04 15:56:00,65.8,45.6,0.00,SW,235,0.0,0.0,48,0.00,,---,0.00,VWS V14.00,2013-08-04 21:56:00,
2013-08-04 15:57:00,65.8,45.6,0.00,SW,235,0.0,0.0,48,0.00,,---,0.00,VWS V14.00,2013-08-04 21:57:00,
2013-08-04 15:59:00,65.8,45.6,0.00,SW,233,0.0,0.0,48,0.00,,---,0.00,VWS V14.00,2013-08-04 21:59:00,
2013-08-04 16:01:00,65.8,45.6,0.00,SW,235,0.0,0.0,48,0.00,,---,0.00,VWS V14.00,2013-08-04 22:01:00,
2013-08-04 16:02:00,65.8,46.2,0.00,SW,228,0.0,0.0,49,0.00,,---,0.00,VWS V14.00,2013-08-04 22:02:00,
2013-08-04 16:03:00,65.8,46.2,0.00,SW,236,0.0,0.0,49,0.00,,---,0.00,VWS V14.00,2013-08-04 22:03:00,
2013-08-04 16:04:00,65.8,46.2,0.00,SW,236,0.0,0.0,49,0.00,,---,0.00,VWS V14.00,2013-08-04 22:04:00,
2013-08-04 16:05:00,65.8,46.2,0.00,SW,236,0.0,0.0,49,0.00,,---,0.00,VWS V14.00,2013-08-04 22:05:00,
2013-08-04 16:06:00,65.8,46.7,0.00,SW,235,0.0,0.0,50,0.00,,---,0.00,VWS V14.00,2013-08-04 22:06:00,
2013-08-04 16:07:00,65.8,46.7,0.00,SSE,161,0.0,0.0,50,0.00,,---,0.00,VWS V14.00,2013-08-04 22:07:00,
2013-08-04 16:08:00,65.8,46.7,0.00,South,185,0.0,0.0,50,0.00,,---,0.00,VWS V14.00,2013-08-04 22:08:00,
2013-08-04 16:09:00,65.8,46.2,0.00,SSW,211,0.0,0.0,49,0.00,,---,0.00,VWS V14.00,2013-08-04 22:09:00,
2013-08-04 16:10:00,65.7,45.5,0.00,SSW,213,0.0,2.2,48,0.00,,---,0.00,VWS V14.00,2013-08-04 22:10:00,
2013-08-04 16:11:00,65.7,45.5,0.00,SSW,213,0.0,0.0,48,0.00,,---,0.00,VWS V14.00,2013-08-04 22:11:00,
2013-08-04 16:13:00,65.7,44.9,0.00,SW,214,0.0,0.0,47,0.00,,---,0.00,VWS V14.00,2013-08-04 22:13:00,
2013-08-04 16:14:00,65.5,44.7,0.00,SW,224,0.0,0.0,47,0.00,,---,0.00,VWS V14.00,2013-08-04 22:14:00,
2013-08-04 16:15:00,65.5,44.2,0.00,SW,230,2.2,2.2,46,0.00,,---,0.00,VWS V14.00,2013-08-04 22:15:00,
2013-08-04 16:16:00,65.5,44.2,0.00,SW,225,2.7,2.7,46,0.00,,---,0.00,VWS V14.00,2013-08-04 22:16:00,
2013-08-04 16:18:00,65.3,44.0,0.00,SW,222,0.0,0.0,46,0.00,,---,0.00,VWS V14.00,2013-08-04 22:18:00,
2013-08-04 16:19:00,65.1,43.8,0.00,SSW,213,0.0,0.0,46,0.00,,---,0.00,VWS V14.00,2013-08-04 22:19:00,
2013-08-04 16:20:00,65.1,43.8,0.00,SW,216,3.1,3.1,46,0.00,,---,0.00,VWS V14.00,2013-08-04 22:20:00,
2013-08-04 16:21:00,64.9,43.7,0.00,SW,220,0.0,2.7,46,0.00,,---,0.00,VWS V14.00,2013-08-04 22:21:00,
2013-08-04 16:23:00,64.8,43.5,0.00,SW,230,0.0,0.0,46,0.00,,---,0.00,VWS V14.00,2013-08-04 22:23:00,
2013-08-04 16:24:00,64.8,43.5,0.00,South,177,2.2,2.7,46,0.00,,---,0.00,VWS V14.00,2013-08-04 22:24:00,
2013-08-04 16:25:00,64.6,43.4,0.00,SSW,200,0.0,2.2,46,0.00,,---,0.00,VWS V14.00,2013-08-04 22:25:00,
2013-08-04 16:26:00,64.4,43.8,0.00,ESE,119,3.6,3.6,47,0.00,,---,0.00,VWS V14.00,2013-08-04 22:26:00,
2013-08-04 16:28:00,64.2,44.1,0.00,SW,216,0.0,0.0,48,0.00,,---,0.00,VWS V14.00,2013-08-04 22:28:00,
2013-08-04 16:29:00,64.2,44.1,0.00,SSW,211,0.0,0.0,48,0.00,,---,0.00,VWS V14.00,2013-08-04 22:29:00,
2013-08-04 16:30:00,64.2,44.1,0.00,SSW,205,0.0,0.0,48,0.00,,---,0.00,VWS V14.00,2013-08-04 22:30:00,
2013-08-04 16:32:00,64.0,44.5,0.00,SE,140,2.2,3.1,49,0.00,,---,0.00,VWS V14.00,2013-08-04 22:32:00,
2013-08-04 16:33:00,63.9,44.3,0.00,East,101,4.0,4.9,49,0.00,,---,0.00,VWS V14.00,2013-08-04 22:33:00,
2013-08-04 16:35:00,63.9,44.3,0.00,SE,137,4.0,5.4,49,0.00,,---,0.00,VWS V14.00,2013-08-04 22:35:00,
2013-08-04 16:37:00,63.7,44.2,0.00,South,171,2.7,3.6,49,0.00,,---,0.00,VWS V14.00,2013-08-04 22:37:00,
2013-08-04 16:38:00,63.5,44.0,0.00,South,180,0.0,2.2,49,0.00,,---,0.00,VWS V14.00,2013-08-04 22:38:00,
2013-08-04 16:40:00,63.3,44.4,0.00,South,186,0.0,0.0,50,0.00,,---,0.00,VWS V14.00,2013-08-04 22:40:00,
2013-08-04 16:41:00,63.1,44.7,0.00,SE,130,2.7,3.6,51,0.00,,---,0.00,VWS V14.00,2013-08-04 22:41:00,
2013-08-04 16:42:00,63.1,45.2,0.00,SE,130,2.7,3.6,52,0.00,,---,0.00,VWS V14.00,2013-08-04 22:42:00,
2013-08-04 16:44:00,63.0,45.6,0.00,SE,131,2.7,3.6,53,0.00,,---,0.00,VWS V14.00,2013-08-04 22:44:00,
2013-08-04 16:45:00,63.0,46.1,0.00,South,171,0.0,4.0,54,0.00,,---,0.00,VWS V14.00,2013-08-04 22:45:00,
2013-08-04 16:47:00,62.8,46.4,0.00,SSE,154,3.6,3.6,55,0.00,,---,0.00,VWS V14.00,2013-08-04 22:47:00,
2013-08-04 16:49:00,62.6,46.7,0.00,SSW,213,0.0,2.2,56,0.00,,---,0.00,VWS V14.00,2013-08-04 22:49:00,
2013-08-04 16:50:00,62.6,46.7,0.00,SW,221,0.0,3.1,56,0.00,,---,0.00,VWS V14.00,2013-08-04 22:50:00,
2013-08-04 16:51:00,62.4,47.0,0.00,SW,231,0.0,0.0,57,0.00,,---,0.00,VWS V14.00,2013-08-04 22:51:00,
2013-08-04 16:52:00,62.2,46.8,0.00,SW,231,0.0,0.0,57,0.00,,---,0.00,VWS V14.00,2013-08-04 22:52:00,
2013-08-04 16:54:00,62.1,47.1,0.00,SW,231,0.0,0.0,58,0.00,,---,0.00,VWS V14.00,2013-08-04 22:54:00,
2013-08-04 16:55:00,61.9,47.0,0.00,SW,231,0.0,0.0,58,0.00,,---,0.00,VWS V14.00,2013-08-04 22:55:00,
2013-08-04 16:56:00,61.9,47.0,0.00,SW,230,0.0,0.0,58,0.00,,---,0.00,VWS V14.00,2013-08-04 22:56:00,
2013-08-04 16:57:00,61.7,47.2,0.00,SW,230,0.0,0.0,59,0.00,,---,0.00,VWS V14.00,2013-08-04 22:57:00,
2013-08-04 16:59:00,61.5,47.1,0.00,SW,223,3.1,3.1,59,0.00,,---,0.00,VWS V14.00,2013-08-04 22:59:00,
2013-08-04 17:00:00,61.5,47.1,0.00,SW,221,2.2,3.1,59,0.00,,---,0.00,VWS V14.00,2013-08-04 23:00:00,
2013-08-04 17:01:00,61.3,46.9,0.00,South,189,3.1,3.1,59,0.00,,---,0.00,VWS V14.00,2013-08-04 23:01:00,
2013-08-04 17:02:00,61.3,46.9,0.00,SSW,208,0.0,3.1,59,0.00,,---,0.00,VWS V14.00,2013-08-04 23:02:00,
2013-08-04 17:04:00,61.2,46.3,0.00,SW,215,3.1,3.1,58,0.00,,---,0.00,VWS V14.00,2013-08-04 23:04:00,
2013-08-04 17:05:00,61.2,45.8,0.00,SW,216,0.0,3.1,57,0.00,,---,0.00,VWS V14.00,2013-08-04 23:05:00,
2013-08-04 17:06:00,61.2,45.8,0.00,SW,230,3.6,4.0,57,0.00,,---,0.00,VWS V14.00,2013-08-04 23:06:00,
2013-08-04 17:07:00,61.0,45.2,0.00,SSE,164,0.0,3.6,56,0.00,,---,0.00,VWS V14.00,2013-08-04 23:07:00,
2013-08-04 17:09:00,60.8,45.0,0.00,ESE,120,2.7,5.4,56,0.00,,---,0.00,VWS V14.00,2013-08-04 23:09:00,
2013-08-04 17:10:00,60.8,45.0,0.00,South,177,0.0,2.7,56,0.00,,---,0.00,VWS V14.00,2013-08-04 23:10:00,
2013-08-04 17:11:00,60.8,45.0,0.00,SW,216,4.0,4.0,56,0.00,,---,0.00,VWS V14.00,2013-08-04 23:11:00,
2013-08-04 17:12:00,60.8,45.0,0.00,SSW,210,0.0,3.1,56,0.00,,---,0.00,VWS V14.00,2013-08-04 23:12:00,
2013-08-04 17:14:00,60.6,44.8,0.00,South,186,2.2,2.2,56,0.00,,---,0.00,VWS V14.00,2013-08-04 23:14:00,
2013-08-04 17:15:00,60.6,44.8,0.00,SW,216,0.0,0.0,56,0.00,,---,0.00,VWS V14.00,2013-08-04 23:15:00,
2013-08-04 17:17:00,60.6,44.8,0.00,SW,236,0.0,0.0,56,0.00,,---,0.00,VWS V14.00,2013-08-04 23:17:00,
2013-08-04 17:18:00,60.6,44.8,0.00,SW,235,0.0,0.0,56,0.00,,---,0.00,VWS V14.00,2013-08-04 23:18:00,
2013-08-04 17:19:00,60.4,44.7,0.00,SW,235,0.0,0.0,56,0.00,,---,0.00,VWS V14.00,2013-08-04 23:19:00,
2013-08-04 17:21:00,60.4,45.2,0.00,SSW,210,0.0,0.0,57,0.00,,---,0.00,VWS V14.00,2013-08-04 23:21:00,
2013-08-04 17:22:00,60.4,45.2,0.00,SW,218,0.0,0.0,57,0.00,,---,0.00,VWS V14.00,2013-08-04 23:22:00,
2013-08-04 17:23:00,60.4,45.2,0.00,SE,137,2.7,4.0,57,0.00,,---,0.00,VWS V14.00,2013-08-04 23:23:00,
2013-08-04 17:24:00,60.4,45.2,0.00,SE,137,0.0,0.0,57,0.00,,---,0.00,VWS V14.00,2013-08-04 23:24:00,
2013-08-04 17:26:00,60.4,45.2,0.00,SSW,209,0.0,0.0,57,0.00,,---,0.00,VWS V14.00,2013-08-04 23:26:00,
2013-08-04 17:27:00,60.4,45.2,0.00,SSW,207,0.0,3.1,57,0.00,,---,0.00,VWS V14.00,2013-08-04 23:27:00,
2013-08-04 17:28:00,60.4,45.2,0.00,SSW,204,0.0,3.1,57,0.00,,---,0.00,VWS V14.00,2013-08-04 23:28:00,
2013-08-04 17:29:00,60.4,45.2,0.00,SSW,204,0.0,0.0,57,0.00,,---,0.00,VWS V14.00,2013-08-04 23:29:00,
2013-08-04 17:31:00,60.4,45.2,0.00,SE,139,2.2,4.0,57,0.00,,---,0.00,VWS V14.00,2013-08-04 23:31:00,
2013-08-04 17:32:00,60.4,45.6,0.00,ESE,120,2.2,3.1,58,0.00,,---,0.00,VWS V14.00,2013-08-04 23:32:00,
2013-08-04 17:33:00,60.4,45.2,0.00,ESE,120,2.7,3.1,57,0.00,,---,0.00,VWS V14.00,2013-08-04 23:33:00,
2013-08-04 17:34:00,60.4,45.6,0.00,ESE,113,2.2,2.7,58,0.00,,---,0.00,VWS V14.00,2013-08-04 23:34:00,
2013-08-04 17:37:00,60.4,45.6,0.00,ESE,119,0.0,3.1,58,0.00,,---,0.00,VWS V14.00,2013-08-04 23:37:00,
2013-08-04 17:38:00,60.4,45.6,0.00,ESE,119,0.0,0.0,58,0.00,,---,0.00,VWS V14.00,2013-08-04 23:38:00,
2013-08-04 17:39:00,60.4,45.6,0.00,ESE,118,0.0,0.0,58,0.00,,---,0.00,VWS V14.00,2013-08-04 23:39:00,
2013-08-04 17:42:00,60.4,45.6,0.00,SSW,213,0.0,2.7,58,0.00,,---,0.00,VWS V14.00,2013-08-04 23:42:00,
2013-08-04 17:43:00,60.4,44.7,0.00,SW,215,0.0,2.7,56,0.00,,---,0.00,VWS V14.00,2013-08-04 23:43:00,
2013-08-04 17:44:00,60.4,44.2,0.00,SW,226,0.0,2.2,55,0.00,,---,0.00,VWS V14.00,2013-08-04 23:44:00,
2013-08-04 17:45:00,60.4,44.2,0.00,SW,236,4.0,4.0,55,0.00,,---,0.00,VWS V14.00,2013-08-04 23:45:00,
2013-08-04 17:47:00,60.4,44.2,0.00,SSW,213,0.0,2.2,55,0.00,,---,0.00,VWS V14.00,2013-08-04 23:47:00,
2013-08-04 17:48:00,60.4,44.2,0.00,SW,220,0.0,2.2,55,0.00,,---,0.00,VWS V14.00,2013-08-04 23:48:00,
2013-08-04 17:49:00,60.4,43.2,0.00,SW,225,0.0,4.0,53,0.00,,---,0.00,VWS V14.00,2013-08-04 23:49:00,
2013-08-04 17:50:00,60.4,43.2,0.00,SSW,192,3.1,3.1,53,0.00,,---,0.00,VWS V14.00,2013-08-04 23:50:00,
2013-08-04 17:52:00,60.4,43.2,0.00,SSW,212,0.0,0.0,53,0.00,,---,0.00,VWS V14.00,2013-08-04 23:52:00,
2013-08-04 17:53:00,60.4,43.2,0.00,SSW,208,0.0,0.0,53,0.00,,---,0.00,VWS V14.00,2013-08-04 23:53:00,
2013-08-04 17:54:00,60.4,43.2,0.00,SSW,213,0.0,0.0,53,0.00,,---,0.00,VWS V14.00,2013-08-04 23:54:00,
2013-08-04 17:55:00,60.4,43.2,0.00,SSW,212,0.0,0.0,53,0.00,,---,0.00,VWS V14.00,2013-08-04 23:55:00,
2013-08-04 17:57:00,60.4,43.2,0.00,SSW,212,0.0,0.0,53,0.00,,---,0.00,VWS V14.00,2013-08-04 23:57:00,
2013-08-04 17:58:00,60.4,43.2,0.00,SSW,213,0.0,0.0,53,0.00,,---,0.00,VWS V14.00,2013-08-04 23:58:00,
2013-08-04 17:59:00,60.4,43.2,0.00,SSW,212,0.0,0.0,53,0.00,,---,0.00,VWS V14.00,2013-08-04 23:59:00,
2013-08-04 18:00:00,60.4,43.2,0.00,SSW,213,0.0,0.0,53,0.00,,---,0.00,VWS V14.00,2013-08-05 00:00:00,
2013-08-04 18:02:00,60.4,43.7,0.00,SSE,160,0.0,0.0,54,0.00,,---,0.00,VWS V14.00,2013-08-05 00:02:00,
2013-08-04 18:03:00,60.4,43.7,0.00,SSE,159,0.0,0.0,54,0.00,,---,0.00,VWS V14.00,2013-08-05 00:03:00,
2013-08-04 18:04:00,60.4,43.7,0.00,SSE,159,0.0,0.0,54,0.00,,---,0.00,VWS V14.00,2013-08-05 00:04:00,
2013-08-04 18:05:00,60.4,44.2,0.00,SSE,160,0.0,0.0,55,0.00,,---,0.00,VWS V14.00,2013-08-05 00:05:00,
2013-08-04 18:08:00,60.4,44.7,0.00,SSE,160,0.0,0.0,56,0.00,,---,0.00,VWS V14.00,2013-08-05 00:08:00,
2013-08-04 18:09:00,60.4,45.2,0.00,SSE,160,0.0,0.0,57,0.00,,---,0.00,VWS V14.00,2013-08-05 00:09:00,
2013-08-04 18:10:00,60.4,45.2,0.00,SSE,160,0.0,0.0,57,0.00,,---,0.00,VWS V14.00,2013-08-05 00:10:00,
2013-08-04 18:13:00,60.4,45.6,0.00,SSE,160,0.0,0.0,58,0.00,,---,0.00,VWS V14.00,2013-08-05 00:13:00,
2013-08-04 18:14:00,60.4,45.6,0.00,SSE,160,0.0,0.0,58,0.00,,---,0.00,VWS V14.00,2013-08-05 00:14:00,
2013-08-04 18:16:00,60.6,45.8,0.00,SSE,160,0.0,0.0,58,0.00,,---,0.00,VWS V14.00,2013-08-05 00:16:00,
2013-08-04 18:18:00,60.6,46.2,0.00,SSE,160,0.0,0.0,59,0.00,,---,0.00,VWS V14.00,2013-08-05 00:18:00,
2013-08-04 18:19:00,60.6,46.2,0.00,SSE,160,0.0,0.0,59,0.00,,---,0.00,VWS V14.00,2013-08-05 00:19:00,
2013-08-04 18:21:00,60.6,46.2,0.00,SSE,160,0.0,0.0,59,0.00,,---,0.00,VWS V14.00,2013-08-05 00:21:00,
2013-08-04 18:23:00,60.6,46.2,0.00,SSE,160,0.0,0.0,59,0.00,,---,0.00,VWS V14.00,2013-08-05 00:23:00,
2013-08-04 18:24:00,60.6,46.7,0.00,SSE,160,0.0,0.0,60,0.00,,---,0.00,VWS V14.00,2013-08-05 00:24:00,
2013-08-04 18:25:00,60.6,46.7,0.00,SSE,157,0.0,0.0,60,0.00,,---,0.00,VWS V14.00,2013-08-05 00:25:00,
2013-08-04 18:26:00,60.6,46.7,0.00,SSE,160,0.0,0.0,60,0.00,,---,0.00,VWS V14.00,2013-08-05 00:26:00,
2013-08-04 18:28:00,60.6,46.7,0.00,SSE,160,0.0,0.0,60,0.00,,---,0.00,VWS V14.00,2013-08-05 00:28:00,
2013-08-04 18:29:00,60.6,46.7,0.00,SSE,160,0.0,0.0,60,0.00,,---,0.00,VWS V14.00,2013-08-05 00:29:00,
2013-08-04 18:30:00,60.6,46.7,0.00,SSE,160,0.0,0.0,60,0.00,,---,0.00,VWS V14.00,2013-08-05 00:30:00,
2013-08-04 18:31:00,60.6,47.1,0.00,SSE,160,0.0,0.0,61,0.00,,---,0.00,VWS V14.00,2013-08-05 00:31:00,
2013-08-04 18:33:00,60.6,47.1,0.00,SSE,160,0.0,0.0,61,0.00,,---,0.00,VWS V14.00,2013-08-05 00:33:00,
2013-08-04 18:34:00,60.6,47.1,0.00,SSE,160,0.0,0.0,61,0.00,,---,0.00,VWS V14.00,2013-08-05 00:34:00,
2013-08-04 18:35:00,60.6,47.1,0.00,SSE,160,0.0,0.0,61,0.00,,---,0.00,VWS V14.00,2013-08-05 00:35:00,
2013-08-04 18:36:00,60.8,47.3,0.00,SSE,160,0.0,0.0,61,0.00,,---,0.00,VWS V14.00,2013-08-05 00:36:00,
2013-08-04 18:38:00,60.8,47.3,0.00,SSE,160,0.0,0.0,61,0.00,,---,0.00,VWS V14.00,2013-08-05 00:38:00,
2013-08-04 18:39:00,60.8,47.3,0.00,SSE,160,0.0,0.0,61,0.00,,---,0.00,VWS V14.00,2013-08-05 00:39:00,
2013-08-04 18:40:00,60.8,46.8,0.00,SSE,160,0.0,0.0,60,0.00,,---,0.00,VWS V14.00,2013-08-05 00:40:00,
2013-08-04 18:42:00,60.8,46.8,0.00,SSE,160,0.0,0.0,60,0.00,,---,0.00,VWS V14.00,2013-08-05 00:42:00,
2013-08-04 18:43:00,60.8,47.3,0.00,SSE,160,0.0,0.0,61,0.00,,---,0.00,VWS V14.00,2013-08-05 00:43:00,
2013-08-04 18:44:00,60.8,47.3,0.00,SSE,160,0.0,0.0,61,0.00,,---,0.00,VWS V14.00,2013-08-05 00:44:00,
2013-08-04 18:45:00,60.8,47.3,0.00,SSE,157,0.0,0.0,61,0.00,,---,0.00,VWS V14.00,2013-08-05 00:45:00,
2013-08-04 18:47:00,60.8,47.3,0.00,SSE,160,0.0,0.0,61,0.00,,---,0.00,VWS V14.00,2013-08-05 00:47:00,
2013-08-04 18:48:00,60.8,47.3,0.00,SSE,160,0.0,0.0,61,0.00,,---,0.00,VWS V14.00,2013-08-05 00:48:00,
2013-08-04 18:49:00,60.8,47.3,0.00,SSE,160,0.0,0.0,61,0.00,,---,0.00,VWS V14.00,2013-08-05 00:49:00,
2013-08-04 18:50:00,60.8,47.3,0.00,SSE,158,0.0,0.0,61,0.00,,---,0.00,VWS V14.00,2013-08-05 00:50:00,
2013-08-04 18:52:00,60.8,47.3,0.00,SSE,160,0.0,0.0,61,0.00,,---,0.00,VWS V14.00,2013-08-05 00:52:00,
2013-08-04 18:54:00,60.8,47.3,0.00,SSE,160,0.0,0.0,61,0.00,,---,0.00,VWS V14.00,2013-08-05 00:54:00,
2013-08-04 18:55:00,60.8,47.3,0.00,SSE,160,0.0,0.0,61,0.00,,---,0.00,VWS V14.00,2013-08-05 00:55:00,
2013-08-04 18:57:00,60.8,47.3,0.00,SSE,160,0.0,0.0,61,0.00,,---,0.00,VWS V14.00,2013-08-05 00:57:00,
2013-08-04 18:59:00,60.6,47.1,0.00,SSE,160,0.0,0.0,61,0.00,,---,0.00,VWS V14.00,2013-08-05 00:59:00,
2013-08-04 19:00:00,60.6,46.7,0.00,SSE,160,0.0,0.0,60,0.00,,---,0.00,VWS V14.00,2013-08-05 01:00:00,
2013-08-04 19:02:00,60.6,47.1,0.00,SSE,157,0.0,0.0,61,0.00,,---,0.00,VWS V14.00,2013-08-05 01:02:00,
2013-08-04 19:04:00,60.6,47.1,0.00,SSE,160,0.0,0.0,61,0.00,,---,0.00,VWS V14.00,2013-08-05 01:04:00,
2013-08-04 19:05:00,60.6,47.1,0.00,SSE,160,0.0,0.0,61,0.00,,---,0.00,VWS V14.00,2013-08-05 01:05:00,
2013-08-04 19:07:00,60.6,47.1,0.00,SSE,160,0.0,0.0,61,0.00,,---,0.00,VWS V14.00,2013-08-05 01:07:00,
2013-08-04 19:09:00,60.6,47.1,0.00,SSE,161,0.0,0.0,61,0.00,,---,0.00,VWS V14.00,2013-08-05 01:09:00,
2013-08-04 19:10:00,60.6,47.1,0.00,SSE,160,0.0,0.0,61,0.00,,---,0.00,VWS V14.00,2013-08-05 01:10:00,
2013-08-04 19:11:00,60.6,47.1,0.00,SSE,160,0.0,0.0,61,0.00,,---,0.00,VWS V14.00,2013-08-05 01:11:00,
2013-08-04 19:12:00,60.6,47.1,0.00,SSE,160,0.0,0.0,61,0.00,,---,0.00,VWS V14.00,2013-08-05 01:12:00,
2013-08-04 19:14:00,60.6,47.1,0.00,SSE,156,0.0,0.0,61,0.00,,---,0.00,VWS V14.00,2013-08-05 01:14:00,
2013-08-04 19:15:00,60.4,46.9,0.00,SSE,160,0.0,0.0,61,0.00,,---,0.00,VWS V14.00,2013-08-05 01:15:00,
2013-08-04 19:16:00,60.4,46.9,0.00,SSE,161,0.0,0.0,61,0.00,,---,0.00,VWS V14.00,2013-08-05 01:16:00,
2013-08-04 19:17:00,60.4,46.9,0.00,SSE,160,0.0,0.0,61,0.00,,---,0.00,VWS V14.00,2013-08-05 01:17:00,
2013-08-04 19:19:00,60.4,46.9,0.00,SSE,160,0.0,0.0,61,0.00,,---,0.00,VWS V14.00,2013-08-05 01:19:00,
2013-08-04 19:20:00,60.4,46.9,0.00,SSE,160,0.0,0.0,61,0.00,,---,0.00,VWS V14.00,2013-08-05 01:20:00,
2013-08-04 19:21:00,60.4,46.9,0.00,SSE,160,0.0,0.0,61,0.00,,---,0.00,VWS V14.00,2013-08-05 01:21:00,
2013-08-04 19:22:00,60.4,47.4,0.00,SSE,160,0.0,0.0,62,0.00,,---,0.00,VWS V14.00,2013-08-05 01:22:00,
2013-08-04 19:24:00,60.4,47.4,0.00,SSE,160,0.0,0.0,62,0.00,,---,0.00,VWS V14.00,2013-08-05 01:24:00,
2013-08-04 19:25:00,60.4,47.4,0.00,SSE,159,0.0,0.0,62,0.00,,---,0.00,VWS V14.00,2013-08-05 01:25:00,
2013-08-04 19:26:00,60.4,47.4,0.00,SSE,159,0.0,0.0,62,0.00,,---,0.00,VWS V14.00,2013-08-05 01:26:00,
2013-08-04 19:28:00,60.4,47.4,0.00,SSE,160,0.0,0.0,62,0.00,,---,0.00,VWS V14.00,2013-08-05 01:28:00,
2013-08-04 19:29:00,60.4,47.4,0.00,SSE,159,0.0,0.0,62,0.00,,---,0.00,VWS V14.00,2013-08-05 01:29:00,
2013-08-04 19:30:00,60.4,47.4,0.00,East,97,0.0,0.0,62,0.00,,---,0.00,VWS V14.00,2013-08-05 01:30:00,
2013-08-04 19:31:00,60.4,47.4,0.00,ESE,106,2.2,2.2,62,0.00,,---,0.00,VWS V14.00,2013-08-05 01:31:00,
2013-08-04 19:33:00,60.4,47.8,0.00,ESE,105,0.0,0.0,63,0.00,,---,0.00,VWS V14.00,2013-08-05 01:33:00,
2013-08-04 19:34:00,60.3,47.6,0.00,ESE,106,0.0,0.0,63,0.00,,---,0.00,VWS V14.00,2013-08-05 01:34:00,
2013-08-04 19:35:00,60.3,48.0,0.00,ESE,106,0.0,0.0,64,0.00,,---,0.00,VWS V14.00,2013-08-05 01:35:00,
2013-08-04 19:36:00,60.3,48.0,0.00,ESE,123,3.1,3.1,64,0.00,,---,0.00,VWS V14.00,2013-08-05 01:36:00,
2013-08-04 19:38:00,60.3,48.5,0.00,East,90,0.0,5.8,65,0.00,,---,0.00,VWS V14.00,2013-08-05 01:38:00,
2013-08-04 19:39:00,60.1,48.3,0.00,ENE,62,5.8,5.8,65,0.00,,---,0.00,VWS V14.00,2013-08-05 01:39:00,
2013-08-04 19:40:00,60.1,48.3,0.00,ESE,118,6.3,10.1,65,0.00,,---,0.00,VWS V14.00,2013-08-05 01:40:00,
2013-08-04 19:41:00,60.1,47.9,0.00,ESE,112,3.6,10.1,64,0.00,,---,0.00,VWS V14.00,2013-08-05 01:41:00,
2013-08-04 19:43:00,59.9,47.7,0.00,East,89,4.0,9.2,64,0.00,,---,0.00,VWS V14.00,2013-08-05 01:43:00,
2013-08-04 19:44:00,59.7,47.1,0.00,SSE,156,3.1,3.6,63,0.00,,---,0.00,VWS V14.00,2013-08-05 01:44:00,
2013-08-04 19:45:00,59.7,47.1,0.00,ESE,108,2.7,2.7,63,0.00,,---,0.00,VWS V14.00,2013-08-05 01:45:00,
2013-08-04 19:46:00,59.7,47.1,0.00,SE,135,2.7,3.1,63,0.00,,---,0.00,VWS V14.00,2013-08-05 01:46:00,
2013-08-04 19:49:00,59.4,46.8,0.00,SE,134,2.2,3.1,63,0.00,,---,0.00,VWS V14.00,2013-08-05 01:49:00,
2013-08-04 19:50:00,59.4,46.8,0.00,NE,53,0.0,2.7,63,0.00,,---,0.00,VWS V14.00,2013-08-05 01:50:00,
2013-08-04 19:51:00,59.4,46.8,0.00,ESE,106,0.0,2.7,63,0.00,,---,0.00,VWS V14.00,2013-08-05 01:51:00,
2013-08-04 19:52:00,59.2,46.6,0.00,SSW,205,0.0,0.0,63,0.00,,---,0.00,VWS V14.00,2013-08-05 01:52:00,
2013-08-04 19:54:00,59.2,46.6,0.00,SSW,203,0.0,0.0,63,0.00,,---,0.00,VWS V14.00,2013-08-05 01:54:00,
2013-08-04 19:55:00,59.2,46.6,0.00,SSW,205,0.0,0.0,63,0.00,,---,0.00,VWS V14.00,2013-08-05 01:55:00,
2013-08-04 19:56:00,59.0,46.4,0.00,SSW,202,0.0,0.0,63,0.00,,---,0.00,VWS V14.00,2013-08-05 01:56:00,
2013-08-04 19:57:00,58.8,46.7,0.00,South,189,0.0,0.0,64,0.00,,---,0.00,VWS V14.00,2013-08-05 01:57:00,
2013-08-04 19:59:00,58.8,46.7,0.00,SSW,193,0.0,2.7,64,0.00,,---,0.00,VWS V14.00,2013-08-05 01:59:00,
2013-08-04 20:00:00,58.6,46.5,0.00,SSW,197,0.0,0.0,64,0.00,,---,0.00,VWS V14.00,2013-08-05 02:00:00,
2013-08-04 20:01:00,58.6,46.5,0.00,SSW,203,0.0,0.0,64,0.00,,---,0.00,VWS V14.00,2013-08-05 02:01:00,
2013-08-04 20:02:00,58.6,46.5,0.00,SSE,150,6.3,6.3,64,0.00,,---,0.00,VWS V14.00,2013-08-05 02:02:00,
2013-08-04 20:04:00,58.5,46.3,0.00,SSW,202,0.0,0.0,64,0.00,,---,0.00,VWS V14.00,2013-08-05 02:04:00,
2013-08-04 20:05:00,58.5,46.8,0.00,SSW,202,0.0,0.0,65,0.00,,---,0.00,VWS V14.00,2013-08-05 02:05:00,
2013-08-04 20:06:00,58.3,46.6,0.00,SSW,202,0.0,0.0,65,0.00,,---,0.00,VWS V14.00,2013-08-05 02:06:00,
2013-08-04 20:07:00,58.3,46.6,0.00,ENE,69,0.0,2.2,65,0.00,,---,0.00,VWS V14.00,2013-08-05 02:07:00,
2013-08-04 20:09:00,58.1,46.4,0.00,ESE,123,0.0,3.6,65,0.00,,---,0.00,VWS V14.00,2013-08-05 02:09:00,
2013-08-04 20:10:00,58.1,46.0,0.00,SW,231,0.0,0.0,64,0.00,,---,0.00,VWS V14.00,2013-08-05 02:10:00,
2013-08-04 20:12:00,58.1,46.0,0.00,SSW,212,0.0,2.2,64,0.00,,---,0.00,VWS V14.00,2013-08-05 02:12:00,
2013-08-04 20:14:00,57.9,45.8,0.00,SSW,212,0.0,0.0,64,0.00,,---,0.00,VWS V14.00,2013-08-05 02:14:00,
2013-08-04 20:15:00,57.9,45.8,0.00,SSW,206,2.2,3.1,64,0.00,,---,0.00,VWS V14.00,2013-08-05 02:15:00,
2013-08-04 20:17:00,57.9,45.8,0.00,South,175,2.2,2.2,64,0.00,,---,0.00,VWS V14.00,2013-08-05 02:17:00,
2013-08-04 20:18:00,57.9,45.8,0.00,South,174,2.2,2.2,64,0.04,,---,0.04,VWS V14.00,2013-08-05 02:18:00,
2013-08-04 20:19:00,57.7,45.2,0.00,ESE,118,2.2,2.7,63,0.04,,---,0.04,VWS V14.00,2013-08-05 02:19:00,
2013-08-04 20:20:00,57.7,45.7,0.00,ESE,117,0.0,3.6,64,0.04,,---,0.04,VWS V14.00,2013-08-05 02:20:00,
2013-08-04 20:22:00,57.7,45.7,0.00,ESE,122,2.7,2.7,64,0.04,,---,0.04,VWS V14.00,2013-08-05 02:22:00,
2013-08-04 20:23:00,57.7,45.7,0.00,ESE,122,0.0,0.0,64,0.04,,---,0.04,VWS V14.00,2013-08-05 02:23:00,
2013-08-04 20:24:00,57.6,45.9,0.00,SSW,195,0.0,0.0,65,0.04,,---,0.04,VWS V14.00,2013-08-05 02:24:00,
2013-08-04 20:25:00,57.6,45.9,0.00,SSW,195,0.0,0.0,65,0.04,,---,0.04,VWS V14.00,2013-08-05 02:25:00,
2013-08-04 20:27:00,57.4,45.3,0.00,SE,127,0.0,0.0,64,0.04,,---,0.04,VWS V14.00,2013-08-05 02:27:00,
2013-08-04 20:28:00,57.4,45.3,0.00,SE,127,0.0,0.0,64,0.04,,---,0.04,VWS V14.00,2013-08-05 02:28:00,
2013-08-04 20:29:00,57.4,45.3,0.00,East,93,2.2,2.7,64,0.04,,---,0.04,VWS V14.00,2013-08-05 02:29:00,
2013-08-04 20:30:00,57.2,45.2,0.00,East,93,0.0,0.0,64,0.04,,---,0.04,VWS V14.00,2013-08-05 02:30:00,
2013-08-04 20:32:00,57.2,45.2,0.00,East,93,0.0,0.0,64,0.04,,---,0.04,VWS V14.00,2013-08-05 02:32:00,
2013-08-04 20:33:00,57.2,45.2,0.00,East,96,0.0,0.0,64,0.04,,---,0.04,VWS V14.00,2013-08-05 02:33:00,
2013-08-04 20:34:00,57.2,45.2,0.00,SW,225,0.0,0.0,64,0.04,,---,0.04,VWS V14.00,2013-08-05 02:34:00,
2013-08-04 20:35:00,57.2,44.7,0.00,SW,225,0.0,0.0,63,0.04,,---,0.04,VWS V14.00,2013-08-05 02:35:00,
2013-08-04 20:37:00,57.0,45.0,0.00,South,191,0.0,0.0,64,0.04,,---,0.04,VWS V14.00,2013-08-05 02:37:00,
2013-08-04 20:38:00,57.0,45.0,0.00,SW,220,0.0,0.0,64,0.04,,---,0.04,VWS V14.00,2013-08-05 02:38:00,
2013-08-04 20:40:00,57.0,45.0,0.00,SSW,199,0.0,0.0,64,0.04,,---,0.04,VWS V14.00,2013-08-05 02:40:00,
2013-08-04 20:41:00,57.0,45.0,0.00,SSW,199,0.0,0.0,64,0.04,,---,0.04,VWS V14.00,2013-08-05 02:41:00,
2013-08-04 20:42:00,56.8,44.8,0.00,SSW,199,0.0,0.0,64,0.04,,---,0.04,VWS V14.00,2013-08-05 02:42:00,
2013-08-04 20:43:00,56.8,44.4,0.00,SSW,199,0.0,0.0,63,0.04,,---,0.04,VWS V14.00,2013-08-05 02:43:00,
2013-08-04 20:45:00,56.8,44.4,0.00,SSW,199,0.0,0.0,63,0.04,,---,0.04,VWS V14.00,2013-08-05 02:45:00,
2013-08-04 20:46:00,56.8,44.8,0.00,SSW,196,0.0,0.0,64,0.04,,---,0.04,VWS V14.00,2013-08-05 02:46:00,
2013-08-04 20:47:00,56.8,44.8,0.00,ENE,78,0.0,0.0,64,0.04,,---,0.04,VWS V14.00,2013-08-05 02:47:00,
2013-08-04 20:48:00,56.8,44.4,0.00,ENE,77,0.0,0.0,63,0.04,,---,0.04,VWS V14.00,2013-08-05 02:48:00,
2013-08-04 20:50:00,56.7,44.6,0.00,East,79,0.0,0.0,64,0.04,,---,0.04,VWS V14.00,2013-08-05 02:50:00,
2013-08-04 20:51:00,56.7,44.6,0.00,East,79,0.0,0.0,64,0.04,,---,0.04,VWS V14.00,2013-08-05 02:51:00,
2013-08-04 20:53:00,56.7,45.0,0.00,SSW,206,0.0,0.0,65,0.04,,---,0.04,VWS V14.00,2013-08-05 02:53:00,
2013-08-04 20:54:00,56.5,44.9,0.00,SSW,210,0.0,0.0,65,0.04,,---,0.04,VWS V14.00,2013-08-05 02:54:00,
2013-08-04 20:55:00,56.5,44.9,0.00,SW,232,0.0,0.0,65,0.04,,---,0.04,VWS V14.00,2013-08-05 02:55:00,
2013-08-04 20:56:00,56.3,44.7,0.00,SW,230,0.0,0.0,65,0.04,,---,0.04,VWS V14.00,2013-08-05 02:56:00,
2013-08-04 20:58:00,56.3,44.7,0.00,SW,228,0.0,0.0,65,0.04,,---,0.04,VWS V14.00,2013-08-05 02:58:00,
2013-08-04 20:59:00,56.3,44.7,0.00,SW,229,0.0,0.0,65,0.04,,---,0.04,VWS V14.00,2013-08-05 02:59:00,
2013-08-04 21:00:00,56.3,44.7,0.00,SW,225,0.0,0.0,65,0.04,,---,0.04,VWS V14.00,2013-08-05 03:00:00,
2013-08-04 21:01:00,56.1,44.1,0.00,SW,225,0.0,0.0,64,0.04,,---,0.04,VWS V14.00,2013-08-05 03:01:00,
2013-08-04 21:03:00,56.1,44.5,0.00,SW,224,0.0,0.0,65,0.04,,---,0.04,VWS V14.00,2013-08-05 03:03:00,
2013-08-04 21:04:00,56.1,44.1,0.00,SW,224,0.0,0.0,64,0.04,,---,0.04,VWS V14.00,2013-08-05 03:04:00,
2013-08-04 21:05:00,56.1,44.1,0.00,SW,225,0.0,0.0,64,0.04,,---,0.04,VWS V14.00,2013-08-05 03:05:00,
2013-08-04 21:06:00,56.1,44.5,0.00,SW,224,0.0,0.0,65,0.04,,---,0.04,VWS V14.00,2013-08-05 03:06:00,
2013-08-04 21:08:00,56.1,44.1,0.00,SW,224,0.0,0.0,64,0.04,,---,0.04,VWS V14.00,2013-08-05 03:08:00,
2013-08-04 21:09:00,56.1,44.5,0.00,SW,224,0.0,0.0,65,0.04,,---,0.04,VWS V14.00,2013-08-05 03:09:00,
2013-08-04 21:10:00,56.1,44.5,0.00,SW,224,0.0,0.0,65,0.04,,---,0.04,VWS V14.00,2013-08-05 03:10:00,
2013-08-04 21:12:00,55.9,44.4,0.00,SW,224,0.0,0.0,65,0.04,,---,0.04,VWS V14.00,2013-08-05 03:12:00,
2013-08-04 21:13:00,55.9,44.4,0.00,SW,225,0.0,0.0,65,0.04,,---,0.04,VWS V14.00,2013-08-05 03:13:00,
2013-08-04 21:14:00,55.9,44.0,0.00,SW,225,0.0,0.0,64,0.04,,---,0.04,VWS V14.00,2013-08-05 03:14:00,
2013-08-04 21:15:00,55.9,44.0,0.00,SW,224,0.0,0.0,64,0.04,,---,0.04,VWS V14.00,2013-08-05 03:15:00,
2013-08-04 21:17:00,55.9,43.5,0.00,SW,224,0.0,0.0,63,0.04,,---,0.04,VWS V14.00,2013-08-05 03:17:00,
2013-08-04 21:18:00,55.9,43.5,0.00,SW,224,0.0,0.0,63,0.04,,---,0.04,VWS V14.00,2013-08-05 03:18:00,
2013-08-04 21:19:00,55.9,44.0,0.00,SW,224,0.0,0.0,64,0.00,,---,0.04,VWS V14.00,2013-08-05 03:19:00,
2013-08-04 21:20:00,55.9,44.0,0.00,SW,224,0.0,0.0,64,0.00,,---,0.04,VWS V14.00,2013-08-05 03:20:00,
2013-08-04 21:22:00,55.9,44.0,0.00,East,97,0.0,2.7,64,0.00,,---,0.04,VWS V14.00,2013-08-05 03:22:00,
2013-08-04 21:23:00,55.9,44.4,0.00,East,97,0.0,0.0,65,0.00,,---,0.04,VWS V14.00,2013-08-05 03:23:00,
2013-08-04 21:24:00,55.9,44.4,0.00,East,97,0.0,0.0,65,0.00,,---,0.04,VWS V14.00,2013-08-05 03:24:00,
2013-08-04 21:25:00,55.9,44.4,0.00,East,97,0.0,0.0,65,0.00,,---,0.04,VWS V14.00,2013-08-05 03:25:00,
2013-08-04 21:28:00,55.8,44.2,0.00,East,97,0.0,0.0,65,0.00,,---,0.04,VWS V14.00,2013-08-05 03:28:00,
2013-08-04 21:30:00,55.8,44.2,0.00,ESE,102,0.0,0.0,65,0.00,,---,0.04,VWS V14.00,2013-08-05 03:30:00,
2013-08-04 21:33:00,55.6,44.0,0.00,ESE,102,0.0,0.0,65,0.00,,---,0.04,VWS V14.00,2013-08-05 03:33:00,
2013-08-04 21:35:00,55.6,44.0,0.00,ESE,102,0.0,0.0,65,0.00,,---,0.04,VWS V14.00,2013-08-05 03:35:00,
2013-08-04 21:36:00,55.6,44.0,0.00,ESE,102,0.0,0.0,65,0.00,,---,0.04,VWS V14.00,2013-08-05 03:36:00,
2013-08-04 21:38:00,55.6,44.0,0.00,ESE,102,0.0,0.0,65,0.00,,---,0.04,VWS V14.00,2013-08-05 03:38:00,
2013-08-04 21:40:00,55.6,44.0,0.00,East,100,0.0,0.0,65,0.00,,---,0.04,VWS V14.00,2013-08-05 03:40:00,
2013-08-04 21:41:00,55.6,44.0,0.00,ESE,102,0.0,0.0,65,0.00,,---,0.04,VWS V14.00,2013-08-05 03:41:00,
2013-08-04 21:43:00,55.4,43.8,0.00,ESE,102,0.0,0.0,65,0.00,,---,0.04,VWS V14.00,2013-08-05 03:43:00,
2013-08-04 21:45:00,55.4,44.2,0.00,ESE,103,0.0,0.0,66,0.00,,---,0.04,VWS V14.00,2013-08-05 03:45:00,
2013-08-04 21:46:00,55.4,44.2,0.00,ESE,103,0.0,0.0,66,0.00,,---,0.04,VWS V14.00,2013-08-05 03:46:00,
2013-08-04 21:48:00,55.4,44.2,0.00,ESE,102,0.0,0.0,66,0.00,,---,0.04,VWS V14.00,2013-08-05 03:48:00,
2013-08-04 21:49:00,55.4,44.2,0.00,ESE,102,0.0,0.0,66,0.00,,---,0.04,VWS V14.00,2013-08-05 03:49:00,
2013-08-04 21:50:00,55.4,44.2,0.00,ESE,103,0.0,0.0,66,0.00,,---,0.04,VWS V14.00,2013-08-05 03:50:00,
2013-08-04 21:51:00,55.4,44.2,0.00,ESE,102,0.0,0.0,66,0.00,,---,0.04,VWS V14.00,2013-08-05 03:51:00,
2013-08-04 21:53:00,55.2,43.7,0.00,ESE,103,0.0,0.0,65,0.00,,---,0.04,VWS V14.00,2013-08-05 03:53:00,
2013-08-04 21:54:00,55.2,43.7,0.00,ESE,103,0.0,0.0,65,0.00,,---,0.04,VWS V14.00,2013-08-05 03:54:00,
2013-08-04 21:55:00,55.2,44.1,0.00,ESE,103,0.0,0.0,66,0.00,,---,0.04,VWS V14.00,2013-08-05 03:55:00,
2013-08-04 21:56:00,55.2,44.1,0.00,ESE,102,0.0,0.0,66,0.00,,---,0.04,VWS V14.00,2013-08-05 03:56:00,
2013-08-04 21:57:00,55.2,44.1,0.00,East,101,0.0,0.0,66,0.00,,---,0.04,VWS V14.00,2013-08-05 03:57:00,
2013-08-04 21:59:00,55.2,44.1,0.00,East,99,0.0,0.0,66,0.00,,---,0.04,VWS V14.00,2013-08-05 03:59:00,
2013-08-04 22:00:00,55.2,44.1,0.00,ESE,103,0.0,0.0,66,0.00,,---,0.04,VWS V14.00,2013-08-05 04:00:00,
2013-08-04 22:01:00,55.2,44.1,0.00,East,100,0.0,0.0,66,0.00,,---,0.04,VWS V14.00,2013-08-05 04:01:00,
2013-08-04 22:06:00,55.0,44.3,0.00,ESE,103,0.0,0.0,67,0.00,,---,0.04,VWS V14.00,2013-08-05 04:06:00,
2013-08-04 22:07:00,55.0,44.3,0.00,South,178,0.0,0.0,67,0.00,,---,0.04,VWS V14.00,2013-08-05 04:07:00,
2013-08-04 22:11:00,55.0,44.3,0.00,South,175,0.0,0.0,67,0.00,,---,0.04,VWS V14.00,2013-08-05 04:11:00,
2013-08-04 22:12:00,55.0,44.3,0.00,South,175,0.0,0.0,67,0.00,,---,0.04,VWS V14.00,2013-08-05 04:12:00,
2013-08-04 22:16:00,54.9,44.1,0.00,East,91,0.0,0.0,67,0.00,,---,0.04,VWS V14.00,2013-08-05 04:16:00,
2013-08-04 22:17:00,54.9,44.1,0.00,East,91,0.0,0.0,67,0.00,,---,0.04,VWS V14.00,2013-08-05 04:17:00,
2013-08-04 22:21:00,54.9,43.7,0.00,East,91,0.0,0.0,66,0.00,,---,0.04,VWS V14.00,2013-08-05 04:21:00,
2013-08-04 22:22:00,54.9,44.1,0.00,East,91,0.0,0.0,67,0.00,,---,0.04,VWS V14.00,2013-08-05 04:22:00,
2013-08-04 22:26:00,54.9,44.1,0.00,East,89,0.0,0.0,67,0.00,,---,0.04,VWS V14.00,2013-08-05 04:26:00,
2013-08-04 22:27:00,54.7,44.0,0.00,East,89,0.0,0.0,67,0.00,,---,0.04,VWS V14.00,2013-08-05 04:27:00,
2013-08-04 22:28:00,54.7,44.0,0.00,East,89,0.0,0.0,67,0.00,,---,0.04,VWS V14.00,2013-08-05 04:28:00,
2013-08-04 22:32:00,54.7,44.0,0.00,East,89,0.0,0.0,67,0.00,,---,0.04,VWS V14.00,2013-08-05 04:32:00,
2013-08-04 22:33:00,54.7,44.0,0.00,East,89,0.0,0.0,67,0.00,,---,0.04,VWS V14.00,2013-08-05 04:33:00,
2013-08-04 22:37:00,54.7,43.6,0.00,East,89,0.0,0.0,66,0.00,,---,0.04,VWS V14.00,2013-08-05 04:37:00,
2013-08-04 22:38:00,54.7,43.6,0.00,East,89,0.0,0.0,66,0.00,,---,0.04,VWS V14.00,2013-08-05 04:38:00,
2013-08-04 22:39:00,54.7,43.6,0.00,East,87,0.0,0.0,66,0.00,,---,0.04,VWS V14.00,2013-08-05 04:39:00,
2013-08-04 22:42:00,54.7,43.6,0.00,East,90,0.0,0.0,66,0.00,,---,0.04,VWS V14.00,2013-08-05 04:42:00,
2013-08-04 22:43:00,54.5,43.4,0.00,ESE,108,0.0,0.0,66,0.00,,---,0.04,VWS V14.00,2013-08-05 04:43:00,
2013-08-04 22:44:00,54.5,43.4,0.00,ESE,108,0.0,0.0,66,0.00,,---,0.04,VWS V14.00,2013-08-05 04:44:00,
2013-08-04 22:47:00,54.5,43.4,0.00,ESE,108,0.0,0.0,66,0.00,,---,0.04,VWS V14.00,2013-08-05 04:47:00,
2013-08-04 22:48:00,54.5,43.4,0.00,ESE,108,0.0,0.0,66,0.00,,---,0.04,VWS V14.00,2013-08-05 04:48:00,
2013-08-04 22:49:00,54.5,43.4,0.00,ESE,108,0.0,0.0,66,0.00,,---,0.04,VWS V14.00,2013-08-05 04:49:00,
2013-08-04 22:52:00,54.5,43.4,0.00,ESE,108,0.0,0.0,66,0.00,,---,0.04,VWS V14.00,2013-08-05 04:52:00,
2013-08-04 22:53:00,54.5,43.4,0.00,ESE,108,0.0,0.0,66,0.00,,---,0.04,VWS V14.00,2013-08-05 04:53:00,
2013-08-04 22:54:00,54.5,43.4,0.00,ESE,105,0.0,0.0,66,0.00,,---,0.04,VWS V14.00,2013-08-05 04:54:00,
2013-08-04 22:57:00,54.5,43.4,0.00,ESE,112,3.1,3.1,66,0.00,,---,0.04,VWS V14.00,2013-08-05 04:57:00,
2013-08-04 22:58:00,54.5,43.4,0.00,ESE,104,0.0,2.7,66,0.00,,---,0.04,VWS V14.00,2013-08-05 04:58:00,
2013-08-04 22:59:00,54.5,43.4,0.00,ESE,114,0.0,3.1,66,0.00,,---,0.04,VWS V14.00,2013-08-05 04:59:00,
2013-08-04 23:02:00,54.5,43.4,0.00,East,79,0.0,0.0,66,0.00,,---,0.04,VWS V14.00,2013-08-05 05:02:00,
2013-08-04 23:03:00,54.5,43.4,0.00,East,79,0.0,0.0,66,0.00,,---,0.04,VWS V14.00,2013-08-05 05:03:00,
2013-08-04 23:04:00,54.5,43.4,0.00,East,79,0.0,0.0,66,0.00,,---,0.04,VWS V14.00,2013-08-05 05:04:00,
2013-08-04 23:07:00,54.5,43.4,0.00,ENE,78,0.0,0.0,66,0.00,,---,0.04,VWS V14.00,2013-08-05 05:07:00,
2013-08-04 23:08:00,54.3,43.2,0.00,East,80,0.0,0.0,66,0.00,,---,0.04,VWS V14.00,2013-08-05 05:08:00,
2013-08-04 23:09:00,54.3,43.2,0.00,ENE,78,0.0,0.0,66,0.00,,---,0.04,VWS V14.00,2013-08-05 05:09:00,
2013-08-04 23:12:00,54.3,43.2,0.00,East,87,0.0,0.0,66,0.00,,---,0.04,VWS V14.00,2013-08-05 05:12:00,
2013-08-04 23:13:00,54.3,43.2,0.00,East,87,0.0,0.0,66,0.00,,---,0.04,VWS V14.00,2013-08-05 05:13:00,
2013-08-04 23:14:00,54.3,43.2,0.00,East,87,0.0,0.0,66,0.00,,---,0.04,VWS V14.00,2013-08-05 05:14:00,
2013-08-04 23:17:00,54.3,43.2,0.00,East,85,0.0,0.0,66,0.00,,---,0.04,VWS V14.00,2013-08-05 05:17:00,
2013-08-04 23:18:00,54.3,43.2,0.00,East,87,0.0,0.0,66,0.00,,---,0.04,VWS V14.00,2013-08-05 05:18:00,
2013-08-04 23:19:00,54.3,43.2,0.00,East,88,0.0,0.0,66,0.00,,---,0.04,VWS V14.00,2013-08-05 05:19:00,
2013-08-04 23:20:00,54.3,43.2,0.00,East,88,0.0,0.0,66,0.00,,---,0.04,VWS V14.00,2013-08-05 05:20:00,
2013-08-04 23:22:00,54.1,43.0,0.00,East,88,0.0,0.0,66,0.00,,---,0.04,VWS V14.00,2013-08-05 05:22:00,
2013-08-04 23:23:00,54.1,43.0,0.00,East,87,0.0,0.0,66,0.00,,---,0.04,VWS V14.00,2013-08-05 05:23:00,
2013-08-04 23:24:00,54.1,43.0,0.00,East,85,0.0,0.0,66,0.00,,---,0.04,VWS V14.00,2013-08-05 05:24:00,
2013-08-04 23:25:00,54.1,42.7,0.00,East,87,0.0,0.0,65,0.00,,---,0.04,VWS V14.00,2013-08-05 05:25:00,
2013-08-04 23:28:00,54.1,42.7,0.00,East,87,0.0,0.0,65,0.00,,---,0.04,VWS V14.00,2013-08-05 05:28:00,
2013-08-04 23:29:00,54.1,42.7,0.00,East,85,0.0,0.0,65,0.00,,---,0.04,VWS V14.00,2013-08-05 05:29:00,
2013-08-04 23:30:00,54.1,43.0,0.00,East,87,0.0,0.0,66,0.00,,---,0.04,VWS V14.00,2013-08-05 05:30:00,
2013-08-04 23:33:00,54.0,42.9,0.00,East,88,0.0,0.0,66,0.00,,---,0.04,VWS V14.00,2013-08-05 05:33:00,
2013-08-04 23:34:00,54.0,42.9,0.00,East,87,0.0,0.0,66,0.00,,---,0.04,VWS V14.00,2013-08-05 05:34:00,
2013-08-04 23:36:00,54.0,42.9,0.00,East,86,0.0,0.0,66,0.00,,---,0.04,VWS V14.00,2013-08-05 05:36:00,
2013-08-04 23:38:00,54.0,42.9,0.00,East,86,0.0,0.0,66,0.00,,---,0.04,VWS V14.00,2013-08-05 05:38:00,
2013-08-04 23:39:00,53.8,42.7,0.00,East,87,0.0,0.0,66,0.00,,---,0.04,VWS V14.00,2013-08-05 05:39:00,
2013-08-04 23:41:00,53.8,42.7,0.00,East,94,0.0,0.0,66,0.00,,---,0.04,VWS V14.00,2013-08-05 05:41:00,
2013-08-04 23:43:00,53.6,42.5,0.00,West,271,0.0,0.0,66,0.00,,---,0.04,VWS V14.00,2013-08-05 05:43:00,
2013-08-04 23:44:00,53.6,42.5,0.00,SW,231,0.0,0.0,66,0.00,,---,0.04,VWS V14.00,2013-08-05 05:44:00,
2013-08-04 23:47:00,53.6,42.5,0.00,SW,230,0.0,0.0,66,0.00,,---,0.04,VWS V14.00,2013-08-05 05:47:00,
2013-08-04 23:48:00,53.6,42.5,0.00,SW,230,0.0,0.0,66,0.00,,---,0.04,VWS V14.00,2013-08-05 05:48:00,
2013-08-04 23:49:00,53.6,42.5,0.00,SW,231,0.0,0.0,66,0.00,,---,0.04,VWS V14.00,2013-08-05 05:49:00,
2013-08-04 23:50:00,53.6,42.5,0.00,SW,231,0.0,0.0,66,0.00,,---,0.04,VWS V14.00,2013-08-05 05:50:00,
2013-08-04 23:52:00,53.4,42.8,0.00,SW,231,0.0,0.0,67,0.00,,---,0.04,VWS V14.00,2013-08-05 05:52:00,
2013-08-04 23:53:00,53.4,42.8,0.00,SW,231,0.0,0.0,67,0.00,,---,0.04,VWS V14.00,2013-08-05 05:53:00,
2013-08-04 23:54:00,53.4,42.8,0.00,SW,231,0.0,0.0,67,0.00,,---,0.04,VWS V14.00,2013-08-05 05:54:00,
2013-08-04 23:55:00,53.4,42.8,0.00,SW,231,0.0,0.0,67,0.00,,---,0.04,VWS V14.00,2013-08-05 05:55:00,
2013-08-04 23:57:00,53.2,42.6,0.00,SW,231,0.0,0.0,67,0.00,,---,0.04,VWS V14.00,2013-08-05 05:57:00,
2013-08-04 23:58:00,53.2,42.6,0.00,SW,231,0.0,0.0,67,0.00,,---,0.04,VWS V14.00,2013-08-05 05:58:00,
2013-08-04 23:59:00,53.2,42.6,0.00,SW,231,0.0,0.0,67,0.00,,---,0.00,VWS V14.00,2013-08-05 05:59:00,